SAS904 KEWR-ESSA
Flight info
| Callsign | SAS904 |
|---|---|
| Flight time | 8h 21m |
| Altitude | 39000 |
| Route | GREKI DCT JUDDS DCT MARTN DCT EBONY DCT HOIST/M085F390 DCT 60N050W 63N040W/M085F410 64N030W 65N020W 65N010W 64N000E/N0483F410 DCT UMBOR DCT SUVAR DCT ELTOK |
| Aircraft | A359/H-SDE2E3GHIJ3J4J5LM1ORWXY/LB1D1 |
Departure
| Time | 2026-04-25 12:38 |
|---|---|
| Airport | Newark Liberty International Airport (KEWR) |
Arrival
| Time | 2026-04-25 21:00 |
|---|---|
| Airport | Stockholm-Arlanda Airport (ESSA) |
| Time | Latitude | Longitude | Altitude | Speed | Heading |
|---|---|---|---|---|---|
| 2026-04-25 11:16 | 40.69186 | -74.17322 | 22 ft | 0 kts | 275° |
| 2026-04-25 12:28 | 40.69186 | -74.17313 | 26 ft | 3 kts | 274° |
| 2026-04-25 12:28 | 40.69185 | -74.17282 | 25 ft | 4 kts | 273° |
| 2026-04-25 12:28 | 40.69183 | -74.17249 | 27 ft | 3 kts | 272° |
| 2026-04-25 12:29 | 40.69183 | -74.17226 | 27 ft | 2 kts | 274° |
| 2026-04-25 12:29 | 40.69184 | -74.17208 | 28 ft | 2 kts | 270° |
| 2026-04-25 12:29 | 40.69186 | -74.17188 | 29 ft | 2 kts | 245° |
| 2026-04-25 12:29 | 40.69195 | -74.17170 | 30 ft | 2 kts | 207° |
| 2026-04-25 12:30 | 40.69204 | -74.17162 | 30 ft | 2 kts | 207° |
| 2026-04-25 12:30 | 40.69208 | -74.17160 | 30 ft | 0 kts | 214° |
| 2026-04-25 12:32 | 40.69204 | -74.17163 | 30 ft | 3 kts | 214° |
| 2026-04-25 12:33 | 40.69159 | -74.17196 | 28 ft | 10 kts | 207° |
| 2026-04-25 12:33 | 40.69087 | -74.17242 | 23 ft | 13 kts | 206° |
| 2026-04-25 12:33 | 40.69008 | -74.17293 | 26 ft | 13 kts | 206° |
| 2026-04-25 12:33 | 40.68927 | -74.17345 | 28 ft | 13 kts | 206° |
| 2026-04-25 12:34 | 40.68840 | -74.17399 | 31 ft | 14 kts | 206° |
| 2026-04-25 12:34 | 40.68755 | -74.17453 | 29 ft | 14 kts | 205° |
| 2026-04-25 12:34 | 40.68669 | -74.17507 | 30 ft | 14 kts | 206° |
| 2026-04-25 12:34 | 40.68608 | -74.17545 | 29 ft | 15 kts | 205° |
| 2026-04-25 12:35 | 40.68474 | -74.17631 | 30 ft | 17 kts | 205° |
| 2026-04-25 12:35 | 40.68363 | -74.17702 | 26 ft | 20 kts | 206° |
| 2026-04-25 12:35 | 40.68233 | -74.17785 | 30 ft | 21 kts | 206° |
| 2026-04-25 12:35 | 40.68094 | -74.17873 | 26 ft | 23 kts | 205° |
| 2026-04-25 12:36 | 40.67952 | -74.17963 | 28 ft | 22 kts | 205° |
| 2026-04-25 12:36 | 40.67812 | -74.18052 | 28 ft | 23 kts | 206° |
| 2026-04-25 12:36 | 40.67701 | -74.18123 | 29 ft | 12 kts | 205° |
| 2026-04-25 12:36 | 40.67632 | -74.18094 | 26 ft | 12 kts | 143° |
| 2026-04-25 12:37 | 40.67578 | -74.18008 | 30 ft | 12 kts | 118° |
| 2026-04-25 12:37 | 40.67580 | -74.17923 | 29 ft | 7 kts | 50° |
| 2026-04-25 12:37 | 40.67625 | -74.17887 | 29 ft | 9 kts | 25° |
| 2026-04-25 12:37 | 40.67770 | -74.17794 | 30 ft | 49 kts | 25° |
| 2026-04-25 12:38 | 40.68271 | -74.17478 | 27 ft | 108 kts | 26° |
| 2026-04-25 12:38 | 40.69096 | -74.16964 | 28 ft | 156 kts | 25° |
| 2026-04-25 12:38 | 40.70102 | -74.16353 | 587 ft | 155 kts | 30° |
| 2026-04-25 12:38 | 40.71085 | -74.15815 | 1278 ft | 151 kts | 26° |
| 2026-04-25 12:39 | 40.72060 | -74.15366 | 1843 ft | 145 kts | 26° |
| 2026-04-25 12:39 | 40.72988 | -74.14925 | 2313 ft | 138 kts | 28° |
| 2026-04-25 12:39 | 40.73854 | -74.14450 | 2681 ft | 130 kts | 31° |
| 2026-04-25 12:39 | 40.74463 | -74.13668 | 2800 ft | 128 kts | 64° |
| 2026-04-25 12:40 | 40.75161 | -74.12752 | 2757 ft | 161 kts | 30° |
| 2026-04-25 12:40 | 40.76344 | -74.12810 | 2878 ft | 188 kts | 335° |
| 2026-04-25 12:40 | 40.77214 | -74.14128 | 3052 ft | 202 kts | 285° |
| 2026-04-25 12:40 | 40.77149 | -74.15963 | 3286 ft | 207 kts | 241° |
| 2026-04-25 12:41 | 40.76436 | -74.17666 | 3619 ft | 219 kts | 237° |
| 2026-04-25 12:41 | 40.75999 | -74.19688 | 3817 ft | 248 kts | 266° |
| 2026-04-25 12:41 | 40.76402 | -74.21962 | 4282 ft | 263 kts | 296° |
| 2026-04-25 12:41 | 40.77558 | -74.23890 | 4812 ft | 274 kts | 314° |
| 2026-04-25 12:42 | 40.78979 | -74.25592 | 5008 ft | 277 kts | 317° |
| 2026-04-25 12:42 | 40.79947 | -74.26692 | 5024 ft | 276 kts | 317° |
| 2026-04-25 12:42 | 40.81887 | -74.28867 | 5080 ft | 274 kts | 317° |
| 2026-04-25 12:42 | 40.83342 | -74.30493 | 5386 ft | 274 kts | 317° |
| 2026-04-25 12:43 | 40.84790 | -74.32104 | 6162 ft | 267 kts | 317° |
| 2026-04-25 12:43 | 40.86185 | -74.33651 | 7078 ft | 257 kts | 317° |
| 2026-04-25 12:43 | 40.89120 | -74.36421 | 8240 ft | 266 kts | 338° |
| 2026-04-25 12:44 | 40.90932 | -74.37020 | 8868 ft | 270 kts | 346° |
| 2026-04-25 12:44 | 40.92763 | -74.37451 | 9471 ft | 272 kts | 347° |
| 2026-04-25 12:44 | 40.96556 | -74.38307 | 10445 ft | 284 kts | 347° |
| 2026-04-25 12:45 | 40.98521 | -74.38759 | 10654 ft | 290 kts | 346° |
| 2026-04-25 12:45 | 41.00247 | -74.39260 | 10798 ft | 293 kts | 345° |
| 2026-04-25 12:45 | 41.04514 | -74.39579 | 11300 ft | 321 kts | 358° |
| 2026-04-25 12:46 | 41.06794 | -74.39433 | 11560 ft | 333 kts | 0° |
| 2026-04-25 12:46 | 41.09145 | -74.39201 | 11837 ft | 344 kts | 1° |
| 2026-04-25 12:46 | 41.11541 | -74.38927 | 12092 ft | 354 kts | 2° |
| 2026-04-25 12:46 | 41.14036 | -74.38632 | 12402 ft | 361 kts | 2° |
| 2026-04-25 12:47 | 41.16559 | -74.38336 | 12805 ft | 365 kts | 2° |
| 2026-04-25 12:47 | 41.19100 | -74.38046 | 13220 ft | 369 kts | 1° |
| 2026-04-25 12:47 | 41.21678 | -74.37759 | 13670 ft | 371 kts | 1° |
| 2026-04-25 12:47 | 41.24266 | -74.37477 | 14096 ft | 373 kts | 1° |
| 2026-04-25 12:48 | 41.26839 | -74.37200 | 14472 ft | 376 kts | 1° |
| 2026-04-25 12:48 | 41.29459 | -74.36920 | 14858 ft | 379 kts | 1° |
| 2026-04-25 12:48 | 41.32103 | -74.36638 | 15256 ft | 381 kts | 0° |
| 2026-04-25 12:48 | 41.34774 | -74.36382 | 15637 ft | 382 kts | 358° |
| 2026-04-25 12:49 | 41.37386 | -74.36625 | 16015 ft | 379 kts | 345° |
| 2026-04-25 12:49 | 41.39875 | -74.37714 | 16410 ft | 375 kts | 330° |
| 2026-04-25 12:49 | 41.42014 | -74.39677 | 16802 ft | 372 kts | 315° |
| 2026-04-25 12:49 | 41.43731 | -74.42263 | 17232 ft | 372 kts | 305° |
| 2026-04-25 12:50 | 41.45135 | -74.45120 | 17641 ft | 372 kts | 299° |
| 2026-04-25 12:50 | 41.46401 | -74.48143 | 18051 ft | 373 kts | 297° |
| 2026-04-25 12:50 | 41.47620 | -74.51222 | 18440 ft | 375 kts | 296° |
| 2026-04-25 12:50 | 41.48843 | -74.54302 | 18768 ft | 376 kts | 297° |
| 2026-04-25 12:51 | 41.50099 | -74.57383 | 19101 ft | 378 kts | 297° |
| 2026-04-25 12:51 | 41.51365 | -74.60412 | 19419 ft | 379 kts | 298° |
| 2026-04-25 12:51 | 41.52674 | -74.63485 | 19745 ft | 380 kts | 298° |
| 2026-04-25 12:51 | 41.53994 | -74.66555 | 20073 ft | 382 kts | 299° |
| 2026-04-25 12:52 | 41.55327 | -74.69642 | 20400 ft | 383 kts | 299° |
| 2026-04-25 12:52 | 41.56666 | -74.72744 | 20711 ft | 385 kts | 299° |
| 2026-04-25 12:52 | 41.57994 | -74.75814 | 20986 ft | 387 kts | 300° |
| 2026-04-25 12:52 | 41.59525 | -74.78801 | 21281 ft | 390 kts | 307° |
| 2026-04-25 12:53 | 41.61384 | -74.81464 | 21593 ft | 393 kts | 314° |
| 2026-04-25 12:53 | 41.63417 | -74.83930 | 21888 ft | 395 kts | 316° |
| 2026-04-25 12:53 | 41.65502 | -74.86290 | 22192 ft | 397 kts | 317° |
| 2026-04-25 12:53 | 41.67648 | -74.88639 | 22496 ft | 398 kts | 318° |
| 2026-04-25 12:54 | 41.69801 | -74.90974 | 22787 ft | 400 kts | 318° |
| 2026-04-25 12:54 | 41.71959 | -74.93321 | 23072 ft | 401 kts | 318° |
| 2026-04-25 12:54 | 41.74138 | -74.95706 | 23364 ft | 403 kts | 318° |
| 2026-04-25 12:54 | 41.76316 | -74.98106 | 23649 ft | 404 kts | 318° |
| 2026-04-25 12:55 | 41.78464 | -75.00485 | 23876 ft | 405 kts | 318° |
| 2026-04-25 12:55 | 41.79203 | -75.01305 | 23954 ft | 406 kts | 318° |
| 2026-04-25 12:55 | 41.82825 | -75.05335 | 24343 ft | 408 kts | 318° |
| 2026-04-25 12:55 | 41.85017 | -75.07779 | 24578 ft | 409 kts | 318° |
| 2026-04-25 12:56 | 41.87186 | -75.10199 | 24805 ft | 410 kts | 318° |
| 2026-04-25 12:56 | 41.89375 | -75.12645 | 25032 ft | 411 kts | 318° |
| 2026-04-25 12:56 | 41.91589 | -75.15117 | 25263 ft | 413 kts | 318° |
| 2026-04-25 12:56 | 41.93804 | -75.17594 | 25499 ft | 414 kts | 318° |
| 2026-04-25 12:57 | 41.96009 | -75.20062 | 25732 ft | 415 kts | 317° |
| 2026-04-25 12:57 | 41.98235 | -75.22552 | 25946 ft | 416 kts | 318° |
| 2026-04-25 12:57 | 42.00477 | -75.25063 | 26173 ft | 418 kts | 317° |
| 2026-04-25 12:57 | 42.02675 | -75.27531 | 26417 ft | 419 kts | 317° |
| 2026-04-25 12:58 | 42.04935 | -75.30053 | 26680 ft | 420 kts | 319° |
| 2026-04-25 12:58 | 42.07339 | -75.32349 | 26935 ft | 424 kts | 324° |
| 2026-04-25 12:58 | 42.09842 | -75.34456 | 27171 ft | 426 kts | 325° |
| 2026-04-25 12:58 | 42.12364 | -75.36501 | 27431 ft | 427 kts | 326° |
| 2026-04-25 12:59 | 42.14927 | -75.38536 | 27686 ft | 429 kts | 326° |
| 2026-04-25 12:59 | 42.17514 | -75.40578 | 27935 ft | 431 kts | 326° |
| 2026-04-25 12:59 | 42.22712 | -75.44687 | 28016 ft | 432 kts | 326° |
| 2026-04-25 13:00 | 42.26144 | -75.47416 | 28004 ft | 432 kts | 326° |
| 2026-04-25 13:00 | 42.33058 | -75.52937 | 28008 ft | 433 kts | 326° |
| 2026-04-25 13:01 | 42.37361 | -75.56385 | 28009 ft | 433 kts | 326° |
| 2026-04-25 13:01 | 42.43411 | -75.61243 | 28001 ft | 434 kts | 326° |
| 2026-04-25 13:02 | 42.47741 | -75.64725 | 28000 ft | 435 kts | 325° |
| 2026-04-25 13:02 | 42.52951 | -75.68923 | 28006 ft | 435 kts | 325° |
| 2026-04-25 13:03 | 42.55561 | -75.71030 | 28000 ft | 436 kts | 325° |
| 2026-04-25 13:03 | 42.58143 | -75.73115 | 27995 ft | 436 kts | 325° |
| 2026-04-25 13:03 | 42.60753 | -75.75231 | 28000 ft | 437 kts | 325° |
| 2026-04-25 13:03 | 42.63364 | -75.77346 | 28010 ft | 437 kts | 325° |
| 2026-04-25 13:04 | 42.68608 | -75.81593 | 28000 ft | 438 kts | 325° |
| 2026-04-25 13:04 | 42.71223 | -75.83717 | 27996 ft | 438 kts | 325° |
| 2026-04-25 13:04 | 42.73813 | -75.85821 | 27998 ft | 438 kts | 325° |
| 2026-04-25 13:05 | 42.76438 | -75.87956 | 27996 ft | 439 kts | 325° |
| 2026-04-25 13:05 | 42.79077 | -75.90104 | 27997 ft | 439 kts | 325° |
| 2026-04-25 13:05 | 42.81701 | -75.92242 | 27990 ft | 440 kts | 325° |
| 2026-04-25 13:05 | 42.84297 | -75.94359 | 27997 ft | 440 kts | 325° |
| 2026-04-25 13:06 | 42.86914 | -75.96500 | 27995 ft | 440 kts | 324° |
| 2026-04-25 13:06 | 42.89563 | -75.98669 | 28002 ft | 441 kts | 324° |
| 2026-04-25 13:06 | 42.92179 | -76.00811 | 27999 ft | 441 kts | 324° |
| 2026-04-25 13:06 | 42.94816 | -76.02969 | 27999 ft | 442 kts | 324° |
| 2026-04-25 13:07 | 43.00111 | -76.07311 | 28008 ft | 442 kts | 324° |
| 2026-04-25 13:07 | 43.02721 | -76.09455 | 28000 ft | 443 kts | 324° |
| 2026-04-25 13:07 | 43.05363 | -76.11628 | 28016 ft | 443 kts | 324° |
| 2026-04-25 13:08 | 43.10702 | -76.15932 | 28011 ft | 446 kts | 328° |
| 2026-04-25 13:08 | 43.16563 | -76.18871 | 28011 ft | 457 kts | 342° |
| 2026-04-25 13:09 | 43.22983 | -76.19426 | 28010 ft | 470 kts | 358° |
| 2026-04-25 13:09 | 43.29530 | -76.18559 | 27994 ft | 473 kts | 1° |
| 2026-04-25 13:10 | 43.36033 | -76.17485 | 27995 ft | 473 kts | 1° |
| 2026-04-25 13:10 | 43.39321 | -76.16946 | 27996 ft | 473 kts | 1° |
| 2026-04-25 13:10 | 43.42602 | -76.16422 | 27999 ft | 473 kts | 0° |
| 2026-04-25 13:11 | 43.45843 | -76.15915 | 27999 ft | 473 kts | 0° |
| 2026-04-25 13:11 | 43.49114 | -76.15409 | 28001 ft | 472 kts | 0° |
| 2026-04-25 13:11 | 43.55662 | -76.14406 | 28003 ft | 472 kts | 0° |
| 2026-04-25 13:12 | 43.62173 | -76.13408 | 28008 ft | 472 kts | 0° |
| 2026-04-25 13:12 | 43.67620 | -76.12569 | 28011 ft | 472 kts | 0° |
| 2026-04-25 13:13 | 43.75239 | -76.11392 | 28016 ft | 471 kts | 0° |
| 2026-04-25 13:13 | 43.81725 | -76.10387 | 28017 ft | 471 kts | 0° |
| 2026-04-25 13:14 | 43.88237 | -76.09377 | 28018 ft | 470 kts | 0° |
| 2026-04-25 13:14 | 43.94730 | -76.08367 | 28018 ft | 470 kts | 0° |
| 2026-04-25 13:15 | 44.01232 | -76.07355 | 28018 ft | 470 kts | 0° |
| 2026-04-25 13:15 | 44.07745 | -76.06338 | 28021 ft | 469 kts | 0° |
| 2026-04-25 13:16 | 44.14201 | -76.05327 | 28025 ft | 469 kts | 0° |
| 2026-04-25 13:16 | 44.20677 | -76.04310 | 28035 ft | 469 kts | 360° |
| 2026-04-25 13:17 | 44.27180 | -76.03288 | 28043 ft | 469 kts | 360° |
| 2026-04-25 13:17 | 44.33627 | -76.02272 | 28061 ft | 468 kts | 360° |
| 2026-04-25 13:18 | 44.40116 | -76.01407 | 28069 ft | 466 kts | 358° |
| 2026-04-25 13:18 | 44.46566 | -76.00756 | 28072 ft | 466 kts | 358° |
| 2026-04-25 13:19 | 44.53058 | -76.00089 | 28074 ft | 467 kts | 358° |
| 2026-04-25 13:19 | 44.58464 | -75.99500 | 28084 ft | 467 kts | 358° |
| 2026-04-25 13:20 | 44.66006 | -75.98607 | 28080 ft | 469 kts | 1° |
| 2026-04-25 13:20 | 44.72402 | -75.96219 | 28087 ft | 484 kts | 17° |
| 2026-04-25 13:21 | 44.78407 | -75.91814 | 28088 ft | 490 kts | 23° |
| 2026-04-25 13:21 | 44.84324 | -75.86986 | 28094 ft | 491 kts | 24° |
| 2026-04-25 13:22 | 44.90221 | -75.82121 | 28094 ft | 490 kts | 24° |
| 2026-04-25 13:23 | 44.99079 | -75.74884 | 28631 ft | 493 kts | 23° |
| 2026-04-25 13:23 | 45.02064 | -75.72464 | 28880 ft | 495 kts | 23° |
| 2026-04-25 13:23 | 45.05068 | -75.70041 | 29138 ft | 496 kts | 23° |
| 2026-04-25 13:23 | 45.08029 | -75.67655 | 29404 ft | 498 kts | 23° |
| 2026-04-25 13:24 | 45.11070 | -75.65202 | 29643 ft | 500 kts | 23° |
| 2026-04-25 13:24 | 45.14067 | -75.62779 | 29886 ft | 502 kts | 22° |
| 2026-04-25 13:24 | 45.17116 | -75.60309 | 30136 ft | 504 kts | 22° |
| 2026-04-25 13:24 | 45.20165 | -75.57835 | 30363 ft | 506 kts | 22° |
| 2026-04-25 13:25 | 45.23224 | -75.55347 | 30621 ft | 507 kts | 22° |
| 2026-04-25 13:25 | 45.26290 | -75.52849 | 30881 ft | 507 kts | 22° |
| 2026-04-25 13:25 | 45.29351 | -75.50351 | 31191 ft | 507 kts | 22° |
| 2026-04-25 13:25 | 45.32412 | -75.47847 | 31610 ft | 504 kts | 22° |
| 2026-04-25 13:26 | 45.35406 | -75.45395 | 32021 ft | 501 kts | 22° |
| 2026-04-25 13:26 | 45.38431 | -75.42917 | 32433 ft | 498 kts | 22° |
| 2026-04-25 13:26 | 45.41431 | -75.40458 | 32838 ft | 496 kts | 22° |
| 2026-04-25 13:26 | 45.44404 | -75.38018 | 33239 ft | 493 kts | 22° |
| 2026-04-25 13:27 | 45.47344 | -75.35604 | 33641 ft | 491 kts | 22° |
| 2026-04-25 13:27 | 45.50316 | -75.33160 | 34022 ft | 489 kts | 22° |
| 2026-04-25 13:27 | 45.53271 | -75.30731 | 34138 ft | 489 kts | 22° |
| 2026-04-25 13:28 | 45.59122 | -75.25908 | 34142 ft | 487 kts | 22° |
| 2026-04-25 13:28 | 45.64985 | -75.21060 | 34144 ft | 485 kts | 22° |
| 2026-04-25 13:29 | 45.70793 | -75.16245 | 34150 ft | 484 kts | 22° |
| 2026-04-25 13:29 | 45.76623 | -75.11402 | 34156 ft | 482 kts | 22° |
| 2026-04-25 13:30 | 45.85000 | -75.03231 | 34159 ft | 486 kts | 28° |
| 2026-04-25 13:31 | 45.93145 | -74.94630 | 34160 ft | 485 kts | 29° |
| 2026-04-25 13:31 | 45.98597 | -74.88844 | 34166 ft | 485 kts | 29° |
| 2026-04-25 13:32 | 46.03995 | -74.83116 | 34168 ft | 483 kts | 29° |
| 2026-04-25 13:32 | 46.09411 | -74.77357 | 34168 ft | 482 kts | 29° |
| 2026-04-25 13:33 | 46.14784 | -74.71633 | 34164 ft | 481 kts | 29° |
| 2026-04-25 13:33 | 46.20177 | -74.65873 | 34169 ft | 480 kts | 29° |
| 2026-04-25 13:34 | 46.25509 | -74.60163 | 34175 ft | 479 kts | 29° |
| 2026-04-25 13:34 | 46.30864 | -74.54412 | 34174 ft | 477 kts | 29° |
| 2026-04-25 13:35 | 46.36162 | -74.48710 | 34184 ft | 476 kts | 29° |
| 2026-04-25 13:35 | 46.41482 | -74.42969 | 34181 ft | 475 kts | 28° |
| 2026-04-25 13:36 | 46.46756 | -74.37260 | 34183 ft | 474 kts | 28° |
| 2026-04-25 13:36 | 46.52042 | -74.31528 | 34188 ft | 473 kts | 28° |
| 2026-04-25 13:37 | 46.57321 | -74.25790 | 34191 ft | 472 kts | 28° |
| 2026-04-25 13:37 | 46.62555 | -74.20086 | 34195 ft | 472 kts | 28° |
| 2026-04-25 13:38 | 46.67797 | -74.14359 | 34196 ft | 471 kts | 28° |
| 2026-04-25 13:38 | 46.73028 | -74.08628 | 34195 ft | 470 kts | 28° |
| 2026-04-25 13:39 | 46.78266 | -74.03061 | 34197 ft | 463 kts | 23° |
| 2026-04-25 13:39 | 46.83783 | -73.98269 | 34200 ft | 459 kts | 21° |
| 2026-04-25 13:40 | 46.89334 | -73.93617 | 34201 ft | 458 kts | 21° |
| 2026-04-25 13:40 | 46.94839 | -73.89020 | 34206 ft | 458 kts | 21° |
| 2026-04-25 13:41 | 47.00377 | -73.84371 | 34208 ft | 457 kts | 21° |
| 2026-04-25 13:41 | 47.05874 | -73.79737 | 34210 ft | 458 kts | 21° |
| 2026-04-25 13:42 | 47.11420 | -73.75048 | 34212 ft | 458 kts | 21° |
| 2026-04-25 13:42 | 47.16941 | -73.70368 | 34197 ft | 459 kts | 21° |
| 2026-04-25 13:43 | 47.22449 | -73.65688 | 34213 ft | 460 kts | 21° |
| 2026-04-25 13:43 | 47.28007 | -73.60955 | 34213 ft | 461 kts | 21° |
| 2026-04-25 13:44 | 47.33555 | -73.56220 | 34221 ft | 462 kts | 22° |
| 2026-04-25 13:44 | 47.39140 | -73.51440 | 34223 ft | 464 kts | 22° |
| 2026-04-25 13:45 | 47.44738 | -73.46637 | 34221 ft | 465 kts | 23° |
| 2026-04-25 13:45 | 47.50337 | -73.41821 | 34218 ft | 466 kts | 23° |
| 2026-04-25 13:46 | 47.55911 | -73.37013 | 34216 ft | 466 kts | 23° |
| 2026-04-25 13:46 | 47.61527 | -73.32158 | 34223 ft | 466 kts | 24° |
| 2026-04-25 13:47 | 47.67100 | -73.27328 | 34219 ft | 466 kts | 24° |
| 2026-04-25 13:47 | 47.72718 | -73.22447 | 34226 ft | 465 kts | 24° |
| 2026-04-25 13:48 | 47.78268 | -73.17612 | 34213 ft | 464 kts | 24° |
| 2026-04-25 13:48 | 47.83851 | -73.12736 | 34218 ft | 463 kts | 24° |
| 2026-04-25 13:49 | 47.89412 | -73.07870 | 34219 ft | 463 kts | 24° |
| 2026-04-25 13:49 | 47.94946 | -73.03015 | 34208 ft | 463 kts | 25° |
| 2026-04-25 13:50 | 47.99551 | -72.98965 | 34212 ft | 463 kts | 25° |
| 2026-04-25 13:50 | 48.06002 | -72.93275 | 34218 ft | 462 kts | 25° |
| 2026-04-25 13:51 | 48.10623 | -72.89190 | 34218 ft | 463 kts | 26° |
| 2026-04-25 13:51 | 48.16184 | -72.84265 | 34217 ft | 464 kts | 26° |
| 2026-04-25 13:52 | 48.21746 | -72.79325 | 34215 ft | 465 kts | 27° |
| 2026-04-25 13:52 | 48.27307 | -72.74372 | 34220 ft | 466 kts | 27° |
| 2026-04-25 13:53 | 48.32875 | -72.69401 | 34223 ft | 467 kts | 27° |
| 2026-04-25 13:53 | 48.38479 | -72.64385 | 34218 ft | 469 kts | 28° |
| 2026-04-25 13:54 | 48.44078 | -72.59361 | 34216 ft | 471 kts | 28° |
| 2026-04-25 13:54 | 48.49700 | -72.54300 | 34210 ft | 472 kts | 29° |
| 2026-04-25 13:55 | 48.55365 | -72.49187 | 34209 ft | 474 kts | 29° |
| 2026-04-25 13:55 | 48.61038 | -72.44055 | 34262 ft | 475 kts | 29° |
| 2026-04-25 13:55 | 48.63878 | -72.41480 | 34456 ft | 475 kts | 29° |
| 2026-04-25 13:56 | 48.66681 | -72.38936 | 34758 ft | 474 kts | 29° |
| 2026-04-25 13:56 | 48.69516 | -72.36358 | 35050 ft | 473 kts | 29° |
| 2026-04-25 13:56 | 48.72313 | -72.33813 | 35197 ft | 474 kts | 29° |
| 2026-04-25 13:57 | 48.77972 | -72.28652 | 35218 ft | 474 kts | 29° |
| 2026-04-25 13:57 | 48.83641 | -72.23469 | 35223 ft | 475 kts | 30° |
| 2026-04-25 13:58 | 48.89276 | -72.18306 | 35227 ft | 475 kts | 30° |
| 2026-04-25 13:58 | 48.94939 | -72.13098 | 35229 ft | 476 kts | 30° |
| 2026-04-25 13:59 | 49.00595 | -72.07883 | 35223 ft | 476 kts | 30° |
| 2026-04-25 13:59 | 49.06277 | -72.02631 | 35226 ft | 476 kts | 30° |
| 2026-04-25 14:00 | 49.10979 | -71.98274 | 35225 ft | 476 kts | 30° |
| 2026-04-25 14:00 | 49.17607 | -71.92119 | 35228 ft | 476 kts | 30° |
| 2026-04-25 14:01 | 49.23254 | -71.86858 | 35226 ft | 476 kts | 30° |
| 2026-04-25 14:01 | 49.28906 | -71.81580 | 35231 ft | 476 kts | 30° |
| 2026-04-25 14:02 | 49.34559 | -71.76283 | 35228 ft | 476 kts | 30° |
| 2026-04-25 14:02 | 49.40178 | -71.71003 | 35228 ft | 475 kts | 30° |
| 2026-04-25 14:03 | 49.45837 | -71.65674 | 35232 ft | 475 kts | 30° |
| 2026-04-25 14:03 | 49.51480 | -71.60346 | 35239 ft | 475 kts | 30° |
| 2026-04-25 14:04 | 49.57073 | -71.55048 | 35238 ft | 475 kts | 30° |
| 2026-04-25 14:04 | 49.62719 | -71.49684 | 35241 ft | 475 kts | 30° |
| 2026-04-25 14:05 | 49.68330 | -71.44344 | 35236 ft | 475 kts | 30° |
| 2026-04-25 14:05 | 49.73929 | -71.38997 | 35242 ft | 474 kts | 31° |
| 2026-04-25 14:06 | 49.79542 | -71.33622 | 35241 ft | 474 kts | 31° |
| 2026-04-25 14:06 | 49.85163 | -71.28225 | 35243 ft | 474 kts | 31° |
| 2026-04-25 14:07 | 49.90752 | -71.22843 | 35242 ft | 473 kts | 31° |
| 2026-04-25 14:07 | 49.96352 | -71.17436 | 35244 ft | 473 kts | 31° |
| 2026-04-25 14:08 | 50.01922 | -71.12044 | 35244 ft | 472 kts | 31° |
| 2026-04-25 14:08 | 50.07505 | -71.06623 | 35246 ft | 471 kts | 31° |
| 2026-04-25 14:09 | 50.13019 | -71.01256 | 35252 ft | 471 kts | 31° |
| 2026-04-25 14:09 | 50.15820 | -70.98523 | 35369 ft | 471 kts | 31° |
| 2026-04-25 14:09 | 50.18607 | -70.95800 | 35652 ft | 470 kts | 31° |
| 2026-04-25 14:09 | 50.20444 | -70.94003 | 35869 ft | 469 kts | 31° |
| 2026-04-25 14:10 | 50.24140 | -70.90383 | 36227 ft | 469 kts | 31° |
| 2026-04-25 14:10 | 50.26877 | -70.87698 | 36488 ft | 469 kts | 31° |
| 2026-04-25 14:10 | 50.29636 | -70.84987 | 36739 ft | 469 kts | 31° |
| 2026-04-25 14:10 | 50.32411 | -70.82256 | 36973 ft | 469 kts | 31° |
| 2026-04-25 14:11 | 50.35173 | -70.79532 | 37220 ft | 469 kts | 31° |
| 2026-04-25 14:11 | 50.37944 | -70.76797 | 37451 ft | 469 kts | 31° |
| 2026-04-25 14:11 | 50.40674 | -70.74102 | 37676 ft | 469 kts | 31° |
| 2026-04-25 14:11 | 50.43431 | -70.71378 | 37902 ft | 469 kts | 31° |
| 2026-04-25 14:12 | 50.46199 | -70.68637 | 38126 ft | 469 kts | 31° |
| 2026-04-25 14:12 | 50.48971 | -70.65889 | 38368 ft | 469 kts | 32° |
| 2026-04-25 14:12 | 50.51725 | -70.63155 | 38575 ft | 468 kts | 32° |
| 2026-04-25 14:12 | 50.54480 | -70.60413 | 38778 ft | 468 kts | 32° |
| 2026-04-25 14:13 | 50.57242 | -70.57661 | 38952 ft | 469 kts | 32° |
| 2026-04-25 14:13 | 50.59957 | -70.54951 | 39102 ft | 469 kts | 32° |
| 2026-04-25 14:13 | 50.62726 | -70.52185 | 39220 ft | 469 kts | 32° |
| 2026-04-25 14:14 | 50.68244 | -70.46663 | 39269 ft | 473 kts | 32° |
| 2026-04-25 14:14 | 50.73793 | -70.41093 | 39269 ft | 472 kts | 32° |
| 2026-04-25 14:15 | 50.78427 | -70.36429 | 39269 ft | 471 kts | 32° |
| 2026-04-25 14:15 | 50.84864 | -70.29931 | 39272 ft | 471 kts | 32° |
| 2026-04-25 14:16 | 50.90352 | -70.24374 | 39271 ft | 470 kts | 32° |
| 2026-04-25 14:16 | 50.95873 | -70.18767 | 39274 ft | 469 kts | 32° |
| 2026-04-25 14:17 | 51.01345 | -70.13196 | 39278 ft | 469 kts | 32° |
| 2026-04-25 14:17 | 51.06838 | -70.07587 | 39283 ft | 469 kts | 32° |
| 2026-04-25 14:18 | 51.12318 | -70.01978 | 39284 ft | 469 kts | 33° |
| 2026-04-25 14:18 | 51.17869 | -69.96421 | 39292 ft | 469 kts | 30° |
| 2026-04-25 14:19 | 51.23520 | -69.91308 | 39293 ft | 470 kts | 29° |
| 2026-04-25 14:19 | 51.29248 | -69.86172 | 39298 ft | 470 kts | 30° |
| 2026-04-25 14:20 | 51.34904 | -69.81003 | 39282 ft | 470 kts | 30° |
| 2026-04-25 14:20 | 51.40584 | -69.75748 | 39304 ft | 470 kts | 30° |
| 2026-04-25 14:21 | 51.46258 | -69.70473 | 39298 ft | 469 kts | 30° |
| 2026-04-25 14:21 | 51.51879 | -69.65236 | 39296 ft | 469 kts | 30° |
| 2026-04-25 14:22 | 51.57535 | -69.59953 | 39299 ft | 469 kts | 30° |
| 2026-04-25 14:22 | 51.63162 | -69.54685 | 39300 ft | 468 kts | 31° |
| 2026-04-25 14:23 | 51.68761 | -69.49427 | 39304 ft | 467 kts | 31° |
| 2026-04-25 14:23 | 51.74404 | -69.44110 | 39307 ft | 467 kts | 31° |
| 2026-04-25 14:24 | 51.79986 | -69.38837 | 39308 ft | 466 kts | 31° |
| 2026-04-25 14:24 | 51.85590 | -69.33528 | 39307 ft | 466 kts | 31° |
| 2026-04-25 14:25 | 51.91185 | -69.28211 | 39315 ft | 465 kts | 31° |
| 2026-04-25 14:25 | 51.96727 | -69.22930 | 39312 ft | 465 kts | 31° |
| 2026-04-25 14:26 | 52.02305 | -69.17599 | 39308 ft | 464 kts | 31° |
| 2026-04-25 14:26 | 52.07843 | -69.12290 | 39309 ft | 464 kts | 31° |
| 2026-04-25 14:27 | 52.13409 | -69.06940 | 39316 ft | 464 kts | 31° |
| 2026-04-25 14:27 | 52.18943 | -69.01605 | 39315 ft | 463 kts | 31° |
| 2026-04-25 14:28 | 52.24483 | -68.96248 | 39316 ft | 463 kts | 31° |
| 2026-04-25 14:28 | 52.30047 | -68.90851 | 39320 ft | 463 kts | 31° |
| 2026-04-25 14:29 | 52.35553 | -68.85496 | 39319 ft | 463 kts | 31° |
| 2026-04-25 14:29 | 52.41097 | -68.80087 | 39331 ft | 463 kts | 32° |
| 2026-04-25 14:30 | 52.46630 | -68.74673 | 39325 ft | 463 kts | 32° |
| 2026-04-25 14:30 | 52.54902 | -68.66549 | 39327 ft | 462 kts | 32° |
| 2026-04-25 14:31 | 52.60388 | -68.61142 | 39333 ft | 462 kts | 32° |
| 2026-04-25 14:31 | 52.65905 | -68.55688 | 39332 ft | 462 kts | 32° |
| 2026-04-25 14:32 | 52.71428 | -68.50211 | 39334 ft | 462 kts | 32° |
| 2026-04-25 14:32 | 52.76930 | -68.44740 | 39331 ft | 462 kts | 32° |
| 2026-04-25 14:33 | 52.82452 | -68.39231 | 39342 ft | 462 kts | 32° |
| 2026-04-25 14:33 | 52.87935 | -68.33746 | 39343 ft | 462 kts | 32° |
| 2026-04-25 14:34 | 52.93446 | -68.28215 | 39344 ft | 462 kts | 32° |
| 2026-04-25 14:34 | 52.98913 | -68.22712 | 39339 ft | 462 kts | 32° |
| 2026-04-25 14:35 | 53.04408 | -68.17165 | 39338 ft | 462 kts | 32° |
| 2026-04-25 14:35 | 53.09886 | -68.11618 | 39345 ft | 462 kts | 32° |
| 2026-04-25 14:36 | 53.15384 | -68.06034 | 39357 ft | 461 kts | 33° |
| 2026-04-25 14:36 | 53.20836 | -68.00480 | 39344 ft | 461 kts | 33° |
| 2026-04-25 14:37 | 53.26315 | -67.94880 | 39362 ft | 460 kts | 33° |
| 2026-04-25 14:37 | 53.30852 | -67.90232 | 39350 ft | 460 kts | 33° |
| 2026-04-25 14:38 | 53.37197 | -67.83710 | 39355 ft | 459 kts | 33° |
| 2026-04-25 14:38 | 53.42616 | -67.78122 | 39369 ft | 459 kts | 33° |
| 2026-04-25 14:39 | 53.47172 | -67.73411 | 39361 ft | 459 kts | 33° |
| 2026-04-25 14:39 | 53.52564 | -67.67819 | 39379 ft | 458 kts | 33° |
| 2026-04-25 14:40 | 53.58005 | -67.62161 | 39360 ft | 458 kts | 33° |
| 2026-04-25 14:40 | 53.63443 | -67.56486 | 39377 ft | 458 kts | 33° |
| 2026-04-25 14:41 | 53.68842 | -67.50837 | 39379 ft | 458 kts | 33° |
| 2026-04-25 14:41 | 53.74268 | -67.45140 | 39385 ft | 458 kts | 33° |
| 2026-04-25 14:42 | 53.78772 | -67.40399 | 39384 ft | 458 kts | 33° |
| 2026-04-25 14:42 | 53.85072 | -67.33747 | 39384 ft | 458 kts | 33° |
| 2026-04-25 14:43 | 53.90484 | -67.28013 | 39389 ft | 458 kts | 33° |
| 2026-04-25 14:43 | 53.95858 | -67.22302 | 39391 ft | 458 kts | 33° |
| 2026-04-25 14:44 | 54.01243 | -67.16562 | 39394 ft | 457 kts | 33° |
| 2026-04-25 14:44 | 54.06650 | -67.10781 | 39395 ft | 456 kts | 34° |
| 2026-04-25 14:45 | 54.11986 | -67.05029 | 39392 ft | 455 kts | 35° |
| 2026-04-25 14:45 | 54.16724 | -66.97938 | 39398 ft | 452 kts | 50° |
| 2026-04-25 14:46 | 54.20170 | -66.88961 | 39394 ft | 452 kts | 60° |
| 2026-04-25 14:46 | 54.23141 | -66.79499 | 39393 ft | 453 kts | 62° |
| 2026-04-25 14:47 | 54.25568 | -66.71538 | 39391 ft | 453 kts | 62° |
| 2026-04-25 14:47 | 54.28961 | -66.60434 | 39389 ft | 453 kts | 62° |
| 2026-04-25 14:48 | 54.31900 | -66.50850 | 39387 ft | 453 kts | 62° |
| 2026-04-25 14:48 | 54.34813 | -66.41337 | 39387 ft | 453 kts | 62° |
| 2026-04-25 14:49 | 54.37736 | -66.31750 | 39385 ft | 453 kts | 62° |
| 2026-04-25 14:49 | 54.40654 | -66.22141 | 39386 ft | 453 kts | 62° |
| 2026-04-25 14:50 | 54.43542 | -66.12587 | 39386 ft | 453 kts | 62° |
| 2026-04-25 14:50 | 54.46437 | -66.02969 | 39369 ft | 453 kts | 62° |
| 2026-04-25 14:51 | 54.49313 | -65.93378 | 39381 ft | 452 kts | 62° |
| 2026-04-25 14:51 | 54.52193 | -65.83735 | 39374 ft | 452 kts | 62° |
| 2026-04-25 14:52 | 54.55052 | -65.74126 | 39386 ft | 452 kts | 62° |
| 2026-04-25 14:52 | 54.57433 | -65.66090 | 39369 ft | 452 kts | 62° |
| 2026-04-25 14:53 | 54.60772 | -65.54775 | 39388 ft | 452 kts | 62° |
| 2026-04-25 14:53 | 54.63605 | -65.45133 | 39389 ft | 452 kts | 62° |
| 2026-04-25 14:54 | 54.66445 | -65.35429 | 39385 ft | 451 kts | 62° |
| 2026-04-25 14:54 | 54.69249 | -65.25807 | 39378 ft | 451 kts | 63° |
| 2026-04-25 14:55 | 54.72071 | -65.16083 | 39387 ft | 451 kts | 63° |
| 2026-04-25 14:55 | 54.74861 | -65.06429 | 39388 ft | 450 kts | 63° |
| 2026-04-25 14:56 | 54.77661 | -64.96701 | 39378 ft | 450 kts | 63° |
| 2026-04-25 14:56 | 54.80447 | -64.86980 | 39373 ft | 450 kts | 63° |
| 2026-04-25 14:57 | 54.83212 | -64.77291 | 39372 ft | 449 kts | 63° |
| 2026-04-25 14:57 | 54.85988 | -64.67527 | 39371 ft | 449 kts | 63° |
| 2026-04-25 14:58 | 54.88723 | -64.57864 | 39367 ft | 448 kts | 63° |
| 2026-04-25 14:58 | 54.91469 | -64.48123 | 39374 ft | 448 kts | 63° |
| 2026-04-25 14:59 | 54.94205 | -64.38374 | 39369 ft | 447 kts | 63° |
| 2026-04-25 14:59 | 54.96918 | -64.28667 | 39369 ft | 447 kts | 63° |
| 2026-04-25 15:00 | 54.99627 | -64.18933 | 39371 ft | 446 kts | 63° |
| 2026-04-25 15:00 | 55.02314 | -64.09239 | 39362 ft | 446 kts | 63° |
| 2026-04-25 15:01 | 55.05004 | -63.99492 | 39363 ft | 446 kts | 63° |
| 2026-04-25 15:01 | 55.07692 | -63.89713 | 39368 ft | 446 kts | 63° |
| 2026-04-25 15:02 | 55.10356 | -63.79980 | 39363 ft | 446 kts | 63° |
| 2026-04-25 15:02 | 55.13012 | -63.70232 | 39367 ft | 446 kts | 63° |
| 2026-04-25 15:03 | 55.15685 | -63.60382 | 39362 ft | 446 kts | 63° |
| 2026-04-25 15:03 | 55.18328 | -63.50598 | 39370 ft | 447 kts | 64° |
| 2026-04-25 15:04 | 55.20980 | -63.40742 | 39363 ft | 447 kts | 64° |
| 2026-04-25 15:04 | 55.23625 | -63.30865 | 39366 ft | 447 kts | 64° |
| 2026-04-25 15:05 | 55.26245 | -63.21042 | 39367 ft | 447 kts | 64° |
| 2026-04-25 15:06 | 55.30190 | -63.06167 | 39363 ft | 447 kts | 64° |
| 2026-04-25 15:06 | 55.32789 | -62.96314 | 39365 ft | 447 kts | 64° |
| 2026-04-25 15:07 | 55.35399 | -62.86374 | 39370 ft | 447 kts | 64° |
| 2026-04-25 15:07 | 55.37987 | -62.76478 | 39368 ft | 447 kts | 64° |
| 2026-04-25 15:08 | 55.40575 | -62.66537 | 39364 ft | 447 kts | 64° |
| 2026-04-25 15:08 | 55.43165 | -62.56543 | 39366 ft | 447 kts | 64° |
| 2026-04-25 15:09 | 55.45726 | -62.46618 | 39370 ft | 447 kts | 64° |
| 2026-04-25 15:09 | 55.49579 | -62.31606 | 38259 ft | 447 kts | 64° |
| 2026-04-25 15:10 | 55.50857 | -62.26604 | 37637 ft | 445 kts | 64° |
| 2026-04-25 15:10 | 55.52112 | -62.21680 | 37005 ft | 444 kts | 64° |
| 2026-04-25 15:10 | 55.54640 | -62.11725 | 35743 ft | 442 kts | 64° |
| 2026-04-25 15:11 | 55.55895 | -62.06766 | 35432 ft | 440 kts | 65° |
| 2026-04-25 15:11 | 55.58380 | -61.96917 | 35367 ft | 441 kts | 65° |
| 2026-04-25 15:12 | 55.62116 | -61.82030 | 35367 ft | 441 kts | 65° |
| 2026-04-25 15:12 | 55.63760 | -61.75447 | 35369 ft | 441 kts | 65° |
| 2026-04-25 15:13 | 55.68293 | -61.57191 | 35364 ft | 440 kts | 65° |
| 2026-04-25 15:14 | 55.70741 | -61.47270 | 35364 ft | 440 kts | 65° |
| 2026-04-25 15:14 | 55.73191 | -61.37295 | 35360 ft | 440 kts | 65° |
| 2026-04-25 15:15 | 55.75621 | -61.27357 | 35357 ft | 440 kts | 65° |
| 2026-04-25 15:15 | 55.78043 | -61.17402 | 35354 ft | 440 kts | 65° |
| 2026-04-25 15:16 | 55.80471 | -61.07377 | 35352 ft | 440 kts | 65° |
| 2026-04-25 15:16 | 55.84078 | -60.92409 | 35350 ft | 441 kts | 65° |
| 2026-04-25 15:17 | 55.87681 | -60.77345 | 35347 ft | 440 kts | 65° |
| 2026-04-25 15:18 | 55.90068 | -60.67307 | 35338 ft | 441 kts | 65° |
| 2026-04-25 15:18 | 55.93643 | -60.52186 | 35332 ft | 441 kts | 65° |
| 2026-04-25 15:19 | 55.95222 | -60.45474 | 35328 ft | 441 kts | 65° |
| 2026-04-25 15:19 | 55.98382 | -60.31980 | 35321 ft | 441 kts | 65° |
| 2026-04-25 15:20 | 56.00722 | -60.21932 | 35315 ft | 441 kts | 65° |
| 2026-04-25 15:20 | 56.03075 | -60.11777 | 35310 ft | 441 kts | 66° |
| 2026-04-25 15:21 | 56.05403 | -60.01682 | 35300 ft | 441 kts | 66° |
| 2026-04-25 15:21 | 56.07742 | -59.91494 | 35296 ft | 440 kts | 66° |
| 2026-04-25 15:22 | 56.10063 | -59.81338 | 35296 ft | 440 kts | 66° |
| 2026-04-25 15:22 | 56.12365 | -59.71211 | 35281 ft | 440 kts | 66° |
| 2026-04-25 15:23 | 56.14661 | -59.61066 | 35280 ft | 440 kts | 66° |
| 2026-04-25 15:23 | 56.16957 | -59.50867 | 35269 ft | 440 kts | 66° |
| 2026-04-25 15:24 | 56.19246 | -59.40656 | 35267 ft | 440 kts | 66° |
| 2026-04-25 15:24 | 56.20756 | -59.33891 | 35264 ft | 440 kts | 66° |
| 2026-04-25 15:25 | 56.23399 | -59.21996 | 35264 ft | 440 kts | 66° |
| 2026-04-25 15:25 | 56.26035 | -59.10061 | 35260 ft | 440 kts | 66° |
| 2026-04-25 15:26 | 56.27910 | -59.01533 | 35254 ft | 440 kts | 66° |
| 2026-04-25 15:26 | 56.30161 | -58.91250 | 35251 ft | 440 kts | 66° |
| 2026-04-25 15:27 | 56.32399 | -58.80971 | 35258 ft | 440 kts | 66° |
| 2026-04-25 15:28 | 56.35727 | -58.65594 | 35243 ft | 440 kts | 66° |
| 2026-04-25 15:28 | 56.37948 | -58.55266 | 35240 ft | 440 kts | 67° |
| 2026-04-25 15:29 | 56.40147 | -58.44993 | 35233 ft | 440 kts | 67° |
| 2026-04-25 15:29 | 56.42345 | -58.34668 | 35230 ft | 440 kts | 67° |
| 2026-04-25 15:30 | 56.44543 | -58.24292 | 35226 ft | 440 kts | 67° |
| 2026-04-25 15:30 | 56.46712 | -58.14000 | 35223 ft | 441 kts | 67° |
| 2026-04-25 15:31 | 56.48892 | -58.03606 | 35216 ft | 441 kts | 67° |
| 2026-04-25 15:31 | 56.51045 | -57.93284 | 35215 ft | 441 kts | 67° |
| 2026-04-25 15:32 | 56.53206 | -57.82875 | 35211 ft | 441 kts | 67° |
| 2026-04-25 15:32 | 56.55347 | -57.72502 | 35205 ft | 441 kts | 67° |
| 2026-04-25 15:33 | 56.58562 | -57.56833 | 35197 ft | 441 kts | 68° |
| 2026-04-25 15:33 | 56.60685 | -57.46418 | 35198 ft | 441 kts | 68° |
| 2026-04-25 15:34 | 56.62810 | -57.35938 | 35191 ft | 441 kts | 68° |
| 2026-04-25 15:34 | 56.64567 | -57.27226 | 35188 ft | 441 kts | 68° |
| 2026-04-25 15:35 | 56.68055 | -57.09827 | 35186 ft | 441 kts | 68° |
| 2026-04-25 15:36 | 56.70455 | -56.93630 | 35181 ft | 445 kts | 78° |
| 2026-04-25 15:36 | 56.71295 | -56.82447 | 35175 ft | 446 kts | 79° |
| 2026-04-25 15:37 | 56.72051 | -56.71215 | 35173 ft | 446 kts | 80° |
| 2026-04-25 15:37 | 56.72796 | -56.60059 | 35170 ft | 446 kts | 80° |
| 2026-04-25 15:38 | 56.73551 | -56.48823 | 35163 ft | 446 kts | 80° |
| 2026-04-25 15:38 | 56.74297 | -56.37639 | 35160 ft | 446 kts | 80° |
| 2026-04-25 15:39 | 56.75037 | -56.26408 | 35155 ft | 446 kts | 80° |
| 2026-04-25 15:39 | 56.75766 | -56.15170 | 35154 ft | 446 kts | 80° |
| 2026-04-25 15:40 | 56.76364 | -56.05815 | 35154 ft | 446 kts | 80° |
| 2026-04-25 15:40 | 56.77190 | -55.92729 | 35148 ft | 446 kts | 80° |
| 2026-04-25 15:41 | 56.77889 | -55.81452 | 35143 ft | 446 kts | 80° |
| 2026-04-25 15:41 | 56.78572 | -55.70289 | 35143 ft | 446 kts | 80° |
| 2026-04-25 15:42 | 56.79250 | -55.59025 | 35138 ft | 446 kts | 81° |
| 2026-04-25 15:42 | 56.79917 | -55.47787 | 35131 ft | 446 kts | 81° |
| 2026-04-25 15:43 | 56.80574 | -55.36532 | 35134 ft | 446 kts | 81° |
| 2026-04-25 15:43 | 56.81222 | -55.25257 | 35134 ft | 446 kts | 81° |
| 2026-04-25 15:44 | 56.81857 | -55.14021 | 35124 ft | 446 kts | 81° |
| 2026-04-25 15:44 | 56.82483 | -55.02780 | 35116 ft | 446 kts | 81° |
| 2026-04-25 15:45 | 56.83100 | -54.91501 | 35119 ft | 446 kts | 81° |
| 2026-04-25 15:45 | 56.83606 | -54.82099 | 35110 ft | 446 kts | 81° |
| 2026-04-25 15:46 | 56.84303 | -54.68943 | 35098 ft | 446 kts | 81° |
| 2026-04-25 15:46 | 56.84887 | -54.57690 | 35098 ft | 446 kts | 81° |
| 2026-04-25 15:47 | 56.85463 | -54.46420 | 35095 ft | 447 kts | 82° |
| 2026-04-25 15:47 | 56.86030 | -54.35103 | 35094 ft | 447 kts | 82° |
| 2026-04-25 15:48 | 56.86588 | -54.23762 | 35091 ft | 447 kts | 82° |
| 2026-04-25 15:48 | 56.87133 | -54.12485 | 35094 ft | 447 kts | 82° |
| 2026-04-25 15:49 | 56.87677 | -54.00991 | 35088 ft | 447 kts | 82° |
| 2026-04-25 15:49 | 56.88203 | -53.89659 | 35085 ft | 447 kts | 82° |
| 2026-04-25 15:50 | 56.88720 | -53.78307 | 35082 ft | 447 kts | 82° |
| 2026-04-25 15:50 | 56.89222 | -53.67039 | 35074 ft | 447 kts | 82° |
| 2026-04-25 15:51 | 56.89638 | -53.57552 | 35076 ft | 447 kts | 82° |
| 2026-04-25 15:51 | 56.90204 | -53.44321 | 35071 ft | 447 kts | 83° |
| 2026-04-25 15:52 | 56.90680 | -53.32942 | 35068 ft | 447 kts | 83° |
| 2026-04-25 15:52 | 56.91142 | -53.21658 | 35062 ft | 447 kts | 83° |
| 2026-04-25 15:53 | 56.91595 | -53.10344 | 35058 ft | 447 kts | 83° |
| 2026-04-25 15:53 | 56.92039 | -52.98978 | 35053 ft | 447 kts | 83° |
| 2026-04-25 15:54 | 56.92473 | -52.87614 | 35045 ft | 447 kts | 83° |
| 2026-04-25 15:54 | 56.92897 | -52.76252 | 35044 ft | 447 kts | 83° |
| 2026-04-25 15:55 | 56.93308 | -52.64941 | 35039 ft | 447 kts | 83° |
| 2026-04-25 15:55 | 56.93712 | -52.53551 | 35042 ft | 447 kts | 83° |
| 2026-04-25 15:56 | 56.94102 | -52.42244 | 35032 ft | 447 kts | 83° |
| 2026-04-25 15:56 | 56.94486 | -52.30828 | 35031 ft | 447 kts | 83° |
| 2026-04-25 15:57 | 56.94856 | -52.19513 | 35029 ft | 447 kts | 83° |
| 2026-04-25 15:57 | 56.95218 | -52.08131 | 35020 ft | 447 kts | 84° |
| 2026-04-25 15:58 | 56.95568 | -51.96797 | 35018 ft | 447 kts | 84° |
| 2026-04-25 15:58 | 56.95909 | -51.85416 | 35018 ft | 447 kts | 84° |
| 2026-04-25 15:59 | 56.96240 | -51.74034 | 35014 ft | 448 kts | 84° |
| 2026-04-25 15:59 | 56.96561 | -51.62633 | 35008 ft | 448 kts | 84° |
| 2026-04-25 16:00 | 56.96768 | -51.55061 | 35005 ft | 448 kts | 84° |
| 2026-04-25 16:00 | 56.97171 | -51.39827 | 35001 ft | 448 kts | 84° |
| 2026-04-25 16:01 | 56.97462 | -51.28378 | 34997 ft | 449 kts | 84° |
| 2026-04-25 16:01 | 56.97740 | -51.17015 | 34993 ft | 449 kts | 84° |
| 2026-04-25 16:02 | 56.98011 | -51.05552 | 34995 ft | 449 kts | 84° |
| 2026-04-25 16:02 | 56.98269 | -50.94154 | 34984 ft | 449 kts | 85° |
| 2026-04-25 16:03 | 56.98519 | -50.82683 | 34979 ft | 449 kts | 85° |
| 2026-04-25 16:03 | 56.98758 | -50.71215 | 34975 ft | 449 kts | 85° |
| 2026-04-25 16:04 | 56.98986 | -50.59814 | 34980 ft | 450 kts | 85° |
| 2026-04-25 16:04 | 56.99205 | -50.48330 | 34974 ft | 449 kts | 85° |
| 2026-04-25 16:05 | 56.99411 | -50.36907 | 34969 ft | 449 kts | 85° |
| 2026-04-25 16:06 | 56.99701 | -50.19677 | 34964 ft | 449 kts | 86° |
| 2026-04-25 16:06 | 56.99881 | -50.08261 | 34958 ft | 450 kts | 86° |
| 2026-04-25 16:07 | 57.00517 | -49.96938 | 34961 ft | 447 kts | 75° |
| 2026-04-25 16:07 | 57.01983 | -49.85830 | 34953 ft | 447 kts | 74° |
| 2026-04-25 16:08 | 57.03561 | -49.74783 | 34950 ft | 447 kts | 74° |
| 2026-04-25 16:08 | 57.05131 | -49.63781 | 34947 ft | 447 kts | 74° |
| 2026-04-25 16:09 | 57.06430 | -49.54537 | 34946 ft | 448 kts | 74° |
| 2026-04-25 16:09 | 57.07964 | -49.43479 | 34943 ft | 448 kts | 74° |
| 2026-04-25 16:10 | 57.09247 | -49.34158 | 34943 ft | 448 kts | 75° |
| 2026-04-25 16:10 | 57.11017 | -49.21209 | 34939 ft | 449 kts | 75° |
| 2026-04-25 16:11 | 57.12532 | -49.10033 | 34937 ft | 449 kts | 75° |
| 2026-04-25 16:11 | 57.14030 | -48.98912 | 34935 ft | 450 kts | 75° |
| 2026-04-25 16:12 | 57.15532 | -48.87677 | 34933 ft | 451 kts | 75° |
| 2026-04-25 16:12 | 57.17014 | -48.76502 | 34933 ft | 451 kts | 75° |
| 2026-04-25 16:13 | 57.18493 | -48.65268 | 34933 ft | 452 kts | 75° |
| 2026-04-25 16:13 | 57.19971 | -48.53953 | 34930 ft | 453 kts | 75° |
| 2026-04-25 16:14 | 57.21433 | -48.42681 | 34928 ft | 453 kts | 76° |
| 2026-04-25 16:14 | 57.22896 | -48.31318 | 34924 ft | 454 kts | 76° |
| 2026-04-25 16:15 | 57.24100 | -48.21885 | 34923 ft | 455 kts | 76° |
| 2026-04-25 16:15 | 57.25780 | -48.08638 | 34925 ft | 455 kts | 76° |
| 2026-04-25 16:16 | 57.27216 | -47.97209 | 34919 ft | 456 kts | 76° |
| 2026-04-25 16:16 | 57.28634 | -47.85826 | 34919 ft | 456 kts | 76° |
| 2026-04-25 16:17 | 57.30050 | -47.74376 | 34917 ft | 457 kts | 76° |
| 2026-04-25 16:17 | 57.31456 | -47.62912 | 34916 ft | 457 kts | 77° |
| 2026-04-25 16:18 | 57.32858 | -47.51390 | 34912 ft | 457 kts | 77° |
| 2026-04-25 16:18 | 57.34241 | -47.39926 | 34914 ft | 458 kts | 77° |
| 2026-04-25 16:19 | 57.35620 | -47.28395 | 34913 ft | 458 kts | 77° |
| 2026-04-25 16:19 | 57.36983 | -47.16906 | 34911 ft | 458 kts | 77° |
| 2026-04-25 16:20 | 57.39014 | -46.99607 | 34906 ft | 459 kts | 77° |
| 2026-04-25 16:21 | 57.41024 | -46.82262 | 34908 ft | 458 kts | 77° |
| 2026-04-25 16:21 | 57.42354 | -46.70660 | 34905 ft | 459 kts | 78° |
| 2026-04-25 16:22 | 57.43666 | -46.59110 | 34906 ft | 459 kts | 78° |
| 2026-04-25 16:22 | 57.44972 | -46.47515 | 34901 ft | 458 kts | 78° |
| 2026-04-25 16:23 | 57.46269 | -46.35899 | 34903 ft | 458 kts | 78° |
| 2026-04-25 16:23 | 57.47547 | -46.24343 | 34904 ft | 458 kts | 78° |
| 2026-04-25 16:24 | 57.48817 | -46.12763 | 34904 ft | 458 kts | 78° |
| 2026-04-25 16:24 | 57.50078 | -46.01162 | 34905 ft | 458 kts | 78° |
| 2026-04-25 16:25 | 57.51334 | -45.89496 | 34899 ft | 458 kts | 78° |
| 2026-04-25 16:25 | 57.52576 | -45.77850 | 34899 ft | 458 kts | 79° |
| 2026-04-25 16:26 | 57.53800 | -45.66271 | 34895 ft | 458 kts | 79° |
| 2026-04-25 16:26 | 57.55014 | -45.54669 | 34902 ft | 458 kts | 79° |
| 2026-04-25 16:27 | 57.56227 | -45.42976 | 34897 ft | 458 kts | 79° |
| 2026-04-25 16:27 | 57.57417 | -45.31386 | 34899 ft | 458 kts | 79° |
| 2026-04-25 16:28 | 57.58604 | -45.19724 | 34898 ft | 458 kts | 79° |
| 2026-04-25 16:28 | 57.59784 | -45.08014 | 34899 ft | 458 kts | 79° |
| 2026-04-25 16:29 | 57.60945 | -44.96367 | 34903 ft | 458 kts | 79° |
| 2026-04-25 16:29 | 57.62101 | -44.84665 | 34905 ft | 458 kts | 80° |
| 2026-04-25 16:30 | 57.63053 | -44.74938 | 34904 ft | 458 kts | 80° |
| 2026-04-25 16:30 | 57.64375 | -44.61292 | 34901 ft | 458 kts | 80° |
| 2026-04-25 16:31 | 57.65502 | -44.49534 | 34900 ft | 458 kts | 80° |
| 2026-04-25 16:31 | 57.66607 | -44.37879 | 34899 ft | 458 kts | 80° |
| 2026-04-25 16:32 | 57.67713 | -44.26092 | 34899 ft | 458 kts | 80° |
| 2026-04-25 16:32 | 57.68799 | -44.14406 | 34901 ft | 458 kts | 81° |
| 2026-04-25 16:33 | 57.69878 | -44.02653 | 34902 ft | 458 kts | 81° |
| 2026-04-25 16:33 | 57.70950 | -43.90864 | 34900 ft | 458 kts | 81° |
| 2026-04-25 16:34 | 57.72004 | -43.79147 | 34901 ft | 459 kts | 81° |
| 2026-04-25 16:34 | 57.73053 | -43.67356 | 34908 ft | 459 kts | 81° |
| 2026-04-25 16:35 | 57.74089 | -43.55580 | 34907 ft | 459 kts | 81° |
| 2026-04-25 16:35 | 57.75110 | -43.43838 | 34903 ft | 459 kts | 81° |
| 2026-04-25 16:36 | 57.76126 | -43.32031 | 34895 ft | 459 kts | 81° |
| 2026-04-25 16:36 | 57.77134 | -43.20177 | 34895 ft | 459 kts | 82° |
| 2026-04-25 16:37 | 57.78123 | -43.08416 | 34899 ft | 459 kts | 82° |
| 2026-04-25 16:37 | 57.79107 | -42.96570 | 34896 ft | 459 kts | 82° |
| 2026-04-25 16:38 | 57.80079 | -42.84725 | 34900 ft | 459 kts | 82° |
| 2026-04-25 16:38 | 57.81033 | -42.72971 | 34900 ft | 458 kts | 82° |
| 2026-04-25 16:39 | 57.81981 | -42.61155 | 34898 ft | 458 kts | 82° |
| 2026-04-25 16:39 | 57.82919 | -42.49312 | 34897 ft | 458 kts | 82° |
| 2026-04-25 16:40 | 57.83840 | -42.37534 | 34898 ft | 457 kts | 82° |
| 2026-04-25 16:40 | 57.84754 | -42.25702 | 34896 ft | 457 kts | 83° |
| 2026-04-25 16:41 | 57.85650 | -42.13963 | 34902 ft | 456 kts | 83° |
| 2026-04-25 16:41 | 57.86976 | -41.96299 | 34899 ft | 456 kts | 83° |
| 2026-04-25 16:42 | 57.87848 | -41.84501 | 34895 ft | 455 kts | 83° |
| 2026-04-25 16:42 | 57.88707 | -41.72715 | 34898 ft | 454 kts | 83° |
| 2026-04-25 16:43 | 57.89550 | -41.61006 | 34899 ft | 454 kts | 83° |
| 2026-04-25 16:43 | 57.90387 | -41.49215 | 34902 ft | 454 kts | 83° |
| 2026-04-25 16:44 | 57.91211 | -41.37450 | 34897 ft | 453 kts | 83° |
| 2026-04-25 16:44 | 57.92021 | -41.25741 | 34900 ft | 453 kts | 84° |
| 2026-04-25 16:45 | 57.92823 | -41.13967 | 34898 ft | 453 kts | 84° |
| 2026-04-25 16:45 | 57.93609 | -41.02263 | 34897 ft | 452 kts | 84° |
| 2026-04-25 16:46 | 57.94388 | -40.90508 | 34896 ft | 452 kts | 84° |
| 2026-04-25 16:46 | 57.94899 | -40.82694 | 34896 ft | 452 kts | 84° |
| 2026-04-25 16:47 | 57.95909 | -40.67035 | 34897 ft | 451 kts | 84° |
| 2026-04-25 16:47 | 57.96654 | -40.55293 | 34898 ft | 451 kts | 84° |
| 2026-04-25 16:48 | 57.97383 | -40.43618 | 34896 ft | 451 kts | 84° |
| 2026-04-25 16:48 | 57.98106 | -40.31866 | 34897 ft | 450 kts | 85° |
| 2026-04-25 16:49 | 57.98813 | -40.20182 | 34893 ft | 450 kts | 85° |
| 2026-04-25 16:49 | 57.99514 | -40.08430 | 34892 ft | 450 kts | 85° |
| 2026-04-25 16:50 | 58.00195 | -39.96738 | 34893 ft | 450 kts | 85° |
| 2026-04-25 16:50 | 58.00679 | -39.84964 | 34894 ft | 449 kts | 88° |
| 2026-04-25 16:51 | 58.00873 | -39.79081 | 35092 ft | 451 kts | 87° |
| 2026-04-25 16:51 | 58.01067 | -39.73094 | 34922 ft | 461 kts | 87° |
| 2026-04-25 16:51 | 58.01341 | -39.65000 | 34897 ft | 472 kts | 87° |
| 2026-04-25 16:52 | 58.01926 | -39.48407 | 34894 ft | 475 kts | 87° |
| 2026-04-25 16:52 | 58.02359 | -39.36041 | 34893 ft | 475 kts | 87° |
| 2026-04-25 16:53 | 58.02986 | -39.17420 | 34896 ft | 475 kts | 87° |
| 2026-04-25 16:54 | 58.03389 | -39.04941 | 34898 ft | 475 kts | 87° |
| 2026-04-25 16:54 | 58.03777 | -38.92556 | 34898 ft | 475 kts | 88° |
| 2026-04-25 16:55 | 58.04154 | -38.80089 | 34898 ft | 475 kts | 88° |
| 2026-04-25 16:55 | 58.04520 | -38.67626 | 34896 ft | 475 kts | 88° |
| 2026-04-25 16:56 | 58.04872 | -38.55217 | 34895 ft | 475 kts | 88° |
| 2026-04-25 16:56 | 58.05158 | -38.44824 | 34896 ft | 476 kts | 88° |
| 2026-04-25 16:57 | 58.05489 | -38.32368 | 34895 ft | 476 kts | 88° |
| 2026-04-25 16:57 | 58.05808 | -38.19866 | 34896 ft | 476 kts | 88° |
| 2026-04-25 16:58 | 58.06115 | -38.07407 | 34899 ft | 476 kts | 88° |
| 2026-04-25 16:58 | 58.06410 | -37.94893 | 34896 ft | 476 kts | 89° |
| 2026-04-25 16:59 | 58.06692 | -37.82439 | 34897 ft | 476 kts | 89° |
| 2026-04-25 16:59 | 58.06964 | -37.69890 | 34898 ft | 477 kts | 89° |
| 2026-04-25 17:00 | 58.07222 | -37.57392 | 34898 ft | 477 kts | 89° |
| 2026-04-25 17:00 | 58.07469 | -37.44856 | 34900 ft | 477 kts | 89° |
| 2026-04-25 17:01 | 58.07702 | -37.32377 | 34898 ft | 477 kts | 89° |
| 2026-04-25 17:01 | 58.07925 | -37.19819 | 34898 ft | 477 kts | 89° |
| 2026-04-25 17:02 | 58.08134 | -37.07337 | 34899 ft | 477 kts | 89° |
| 2026-04-25 17:02 | 58.08332 | -36.94765 | 34898 ft | 478 kts | 89° |
| 2026-04-25 17:03 | 58.08516 | -36.82287 | 34901 ft | 478 kts | 90° |
| 2026-04-25 17:03 | 58.08690 | -36.69675 | 34900 ft | 478 kts | 90° |
| 2026-04-25 17:04 | 58.08850 | -36.57175 | 34902 ft | 478 kts | 90° |
| 2026-04-25 17:04 | 58.08999 | -36.44586 | 34905 ft | 478 kts | 90° |
| 2026-04-25 17:05 | 58.09135 | -36.31990 | 34902 ft | 478 kts | 90° |
| 2026-04-25 17:05 | 58.09315 | -36.13163 | 34902 ft | 478 kts | 90° |
| 2026-04-25 17:06 | 58.09421 | -36.00572 | 34903 ft | 478 kts | 90° |
| 2026-04-25 17:06 | 58.09513 | -35.88049 | 34902 ft | 478 kts | 90° |
| 2026-04-25 17:07 | 58.09594 | -35.75427 | 34905 ft | 479 kts | 90° |
| 2026-04-25 17:07 | 58.09662 | -35.62911 | 34904 ft | 479 kts | 91° |
| 2026-04-25 17:08 | 58.09718 | -35.50299 | 34904 ft | 479 kts | 91° |
| 2026-04-25 17:08 | 58.09761 | -35.37772 | 34904 ft | 479 kts | 91° |
| 2026-04-25 17:09 | 58.09792 | -35.25164 | 34903 ft | 479 kts | 91° |
| 2026-04-25 17:09 | 58.09811 | -35.12521 | 34902 ft | 479 kts | 91° |
| 2026-04-25 17:10 | 58.09818 | -34.99926 | 34906 ft | 479 kts | 91° |
| 2026-04-25 17:10 | 58.09811 | -34.87377 | 34906 ft | 479 kts | 91° |
| 2026-04-25 17:11 | 58.09792 | -34.74735 | 34906 ft | 479 kts | 91° |
| 2026-04-25 17:11 | 58.09761 | -34.62179 | 34906 ft | 480 kts | 91° |
| 2026-04-25 17:12 | 58.09717 | -34.49557 | 34906 ft | 480 kts | 92° |
| 2026-04-25 17:12 | 58.09661 | -34.36915 | 34906 ft | 480 kts | 92° |
| 2026-04-25 17:13 | 58.09605 | -34.26490 | 34903 ft | 480 kts | 92° |
| 2026-04-25 17:13 | 58.09511 | -34.11679 | 34905 ft | 480 kts | 92° |
| 2026-04-25 17:14 | 58.09418 | -33.99148 | 34908 ft | 480 kts | 92° |
| 2026-04-25 17:14 | 58.09312 | -33.86480 | 34906 ft | 480 kts | 92° |
| 2026-04-25 17:15 | 58.09194 | -33.73889 | 34905 ft | 480 kts | 92° |
| 2026-04-25 17:15 | 58.09062 | -33.61225 | 34908 ft | 480 kts | 92° |
| 2026-04-25 17:16 | 58.08920 | -33.48649 | 34906 ft | 480 kts | 92° |
| 2026-04-25 17:16 | 58.08764 | -33.36062 | 34904 ft | 480 kts | 92° |
| 2026-04-25 17:17 | 58.08595 | -33.23392 | 34909 ft | 481 kts | 93° |
| 2026-04-25 17:17 | 58.08414 | -33.10811 | 34908 ft | 481 kts | 93° |
| 2026-04-25 17:18 | 58.08220 | -32.98137 | 34908 ft | 481 kts | 93° |
| 2026-04-25 17:18 | 58.08015 | -32.85553 | 34907 ft | 481 kts | 93° |
| 2026-04-25 17:19 | 58.07796 | -32.72903 | 34907 ft | 481 kts | 93° |
| 2026-04-25 17:19 | 58.07564 | -32.60242 | 34907 ft | 481 kts | 93° |
| 2026-04-25 17:20 | 58.07322 | -32.47681 | 34908 ft | 481 kts | 93° |
| 2026-04-25 17:20 | 58.07066 | -32.35033 | 34908 ft | 481 kts | 94° |
| 2026-04-25 17:21 | 58.06798 | -32.22431 | 34909 ft | 481 kts | 94° |
| 2026-04-25 17:21 | 58.06516 | -32.09760 | 34906 ft | 481 kts | 94° |
| 2026-04-25 17:22 | 58.06272 | -31.99236 | 34908 ft | 481 kts | 94° |
| 2026-04-25 17:22 | 58.05917 | -31.84540 | 34909 ft | 481 kts | 94° |
| 2026-04-25 17:23 | 58.05598 | -31.71896 | 34912 ft | 481 kts | 94° |
| 2026-04-25 17:23 | 58.05268 | -31.59317 | 34910 ft | 481 kts | 94° |
| 2026-04-25 17:24 | 58.04926 | -31.46713 | 34913 ft | 481 kts | 94° |
| 2026-04-25 17:24 | 58.04569 | -31.34115 | 34914 ft | 481 kts | 94° |
| 2026-04-25 17:25 | 58.04200 | -31.21478 | 34902 ft | 481 kts | 94° |
| 2026-04-25 17:25 | 58.03820 | -31.08914 | 34911 ft | 481 kts | 94° |
| 2026-04-25 17:26 | 58.03427 | -30.96307 | 34909 ft | 481 kts | 95° |
| 2026-04-25 17:26 | 58.03020 | -30.83664 | 34908 ft | 481 kts | 95° |
| 2026-04-25 17:27 | 58.02603 | -30.71122 | 34908 ft | 481 kts | 95° |
| 2026-04-25 17:27 | 58.02319 | -30.62763 | 34913 ft | 481 kts | 95° |
| 2026-04-25 17:28 | 58.01731 | -30.45956 | 34917 ft | 480 kts | 95° |
| 2026-04-25 17:28 | 58.01275 | -30.33357 | 34911 ft | 480 kts | 95° |
| 2026-04-25 17:29 | 58.00810 | -30.20867 | 34907 ft | 480 kts | 95° |
| 2026-04-25 17:29 | 58.00330 | -30.08283 | 34914 ft | 480 kts | 95° |
| 2026-04-25 17:30 | 58.00208 | -29.95679 | 34914 ft | 481 kts | 88° |
| 2026-04-25 17:30 | 58.00624 | -29.83141 | 34921 ft | 481 kts | 87° |
| 2026-04-25 17:31 | 58.01112 | -29.70539 | 34912 ft | 481 kts | 87° |
| 2026-04-25 17:31 | 58.01589 | -29.57920 | 34919 ft | 481 kts | 87° |
| 2026-04-25 17:32 | 58.02039 | -29.45396 | 34915 ft | 481 kts | 87° |
| 2026-04-25 17:32 | 58.02474 | -29.32793 | 34914 ft | 480 kts | 87° |
| 2026-04-25 17:33 | 58.02892 | -29.20279 | 34916 ft | 480 kts | 88° |
| 2026-04-25 17:33 | 58.03302 | -29.07679 | 34920 ft | 480 kts | 88° |
| 2026-04-25 17:34 | 58.03696 | -28.95146 | 34917 ft | 480 kts | 88° |
| 2026-04-25 17:34 | 58.04081 | -28.82544 | 34921 ft | 480 kts | 88° |
| 2026-04-25 17:35 | 58.04450 | -28.70040 | 34922 ft | 480 kts | 88° |
| 2026-04-25 17:35 | 58.04810 | -28.57438 | 34922 ft | 480 kts | 88° |
| 2026-04-25 17:36 | 58.05155 | -28.44909 | 34921 ft | 479 kts | 88° |
| 2026-04-25 17:36 | 58.05490 | -28.32310 | 34920 ft | 479 kts | 88° |
| 2026-04-25 17:37 | 58.05811 | -28.19737 | 34927 ft | 479 kts | 88° |
| 2026-04-25 17:37 | 58.06121 | -28.07152 | 34927 ft | 479 kts | 88° |
| 2026-04-25 17:38 | 58.06319 | -27.98817 | 34921 ft | 479 kts | 88° |
| 2026-04-25 17:38 | 58.06700 | -27.82090 | 34927 ft | 479 kts | 89° |
| 2026-04-25 17:39 | 58.06972 | -27.69495 | 34929 ft | 479 kts | 89° |
| 2026-04-25 17:39 | 58.07230 | -27.56973 | 34924 ft | 479 kts | 89° |
| 2026-04-25 17:40 | 58.07478 | -27.44356 | 34928 ft | 479 kts | 89° |
| 2026-04-25 17:40 | 58.07712 | -27.31823 | 34928 ft | 479 kts | 89° |
| 2026-04-25 17:41 | 58.07935 | -27.19184 | 34922 ft | 479 kts | 89° |
| 2026-04-25 17:41 | 58.08144 | -27.06663 | 34925 ft | 479 kts | 89° |
| 2026-04-25 17:42 | 58.08342 | -26.94077 | 34927 ft | 479 kts | 89° |
| 2026-04-25 17:42 | 58.08527 | -26.81517 | 34928 ft | 479 kts | 89° |
| 2026-04-25 17:43 | 58.08700 | -26.68895 | 34927 ft | 479 kts | 89° |
| 2026-04-25 17:43 | 58.08859 | -26.56367 | 34929 ft | 479 kts | 90° |
| 2026-04-25 17:44 | 58.09007 | -26.43769 | 34929 ft | 478 kts | 90° |
| 2026-04-25 17:44 | 58.09143 | -26.31239 | 34928 ft | 478 kts | 90° |
| 2026-04-25 17:45 | 58.09226 | -26.22876 | 34926 ft | 478 kts | 90° |
| 2026-04-25 17:45 | 58.09376 | -26.06126 | 34927 ft | 478 kts | 90° |
| 2026-04-25 17:46 | 58.09458 | -25.95647 | 34932 ft | 478 kts | 90° |
| 2026-04-25 17:46 | 58.09546 | -25.83131 | 34931 ft | 478 kts | 90° |
| 2026-04-25 17:47 | 58.09622 | -25.70514 | 34935 ft | 478 kts | 90° |
| 2026-04-25 17:47 | 58.09685 | -25.57990 | 34934 ft | 479 kts | 90° |
| 2026-04-25 17:48 | 58.09757 | -25.39053 | 34932 ft | 479 kts | 91° |
| 2026-04-25 17:49 | 58.09789 | -25.26538 | 34938 ft | 479 kts | 91° |
| 2026-04-25 17:49 | 58.09808 | -25.13937 | 34936 ft | 479 kts | 91° |
| 2026-04-25 17:50 | 58.09816 | -25.01392 | 34936 ft | 479 kts | 91° |
| 2026-04-25 17:50 | 58.09811 | -24.88758 | 34940 ft | 479 kts | 91° |
| 2026-04-25 17:51 | 58.09794 | -24.76197 | 34939 ft | 479 kts | 91° |
| 2026-04-25 17:51 | 58.09764 | -24.63551 | 34940 ft | 479 kts | 91° |
| 2026-04-25 17:52 | 58.09722 | -24.50996 | 34941 ft | 479 kts | 91° |
| 2026-04-25 17:52 | 58.09668 | -24.38364 | 34945 ft | 480 kts | 91° |
| 2026-04-25 17:53 | 58.09601 | -24.25796 | 34943 ft | 480 kts | 92° |
| 2026-04-25 17:53 | 58.09521 | -24.13192 | 34948 ft | 480 kts | 92° |
| 2026-04-25 17:54 | 58.09429 | -24.00560 | 34947 ft | 480 kts | 92° |
| 2026-04-25 17:54 | 58.09325 | -23.87934 | 34947 ft | 479 kts | 92° |
| 2026-04-25 17:55 | 58.09208 | -23.75399 | 34951 ft | 479 kts | 92° |
| 2026-04-25 17:55 | 58.09080 | -23.62835 | 34949 ft | 479 kts | 92° |
| 2026-04-25 17:56 | 58.08938 | -23.50227 | 34953 ft | 480 kts | 92° |
| 2026-04-25 17:56 | 58.08783 | -23.37591 | 34951 ft | 480 kts | 92° |
| 2026-04-25 17:57 | 58.08617 | -23.25024 | 34953 ft | 480 kts | 93° |
| 2026-04-25 17:57 | 58.08438 | -23.12377 | 34956 ft | 481 kts | 93° |
| 2026-04-25 17:58 | 58.08245 | -22.99741 | 34957 ft | 481 kts | 93° |
| 2026-04-25 17:58 | 58.08042 | -22.87158 | 34960 ft | 481 kts | 93° |
| 2026-04-25 17:59 | 58.07825 | -22.74520 | 34960 ft | 481 kts | 93° |
| 2026-04-25 17:59 | 58.07596 | -22.61914 | 34965 ft | 481 kts | 93° |
| 2026-04-25 18:00 | 58.07353 | -22.49248 | 34962 ft | 481 kts | 94° |
| 2026-04-25 18:00 | 58.07099 | -22.36607 | 34979 ft | 481 kts | 94° |
| 2026-04-25 18:01 | 58.06833 | -22.24031 | 34967 ft | 481 kts | 94° |
| 2026-04-25 18:01 | 58.06555 | -22.11467 | 34968 ft | 480 kts | 94° |
| 2026-04-25 18:02 | 58.06262 | -21.98824 | 34968 ft | 480 kts | 94° |
| 2026-04-25 18:02 | 58.05958 | -21.86222 | 34969 ft | 480 kts | 94° |
| 2026-04-25 18:03 | 58.05643 | -21.73667 | 34974 ft | 480 kts | 94° |
| 2026-04-25 18:03 | 58.05313 | -21.61038 | 34968 ft | 480 kts | 94° |
| 2026-04-25 18:04 | 58.04974 | -21.48513 | 34981 ft | 480 kts | 95° |
| 2026-04-25 18:04 | 58.04620 | -21.35905 | 34986 ft | 480 kts | 95° |
| 2026-04-25 18:05 | 58.04253 | -21.23290 | 34980 ft | 481 kts | 95° |
| 2026-04-25 18:05 | 58.03876 | -21.10752 | 34992 ft | 481 kts | 95° |
| 2026-04-25 18:06 | 58.03483 | -20.98096 | 34984 ft | 481 kts | 95° |
| 2026-04-25 18:06 | 58.03081 | -20.85534 | 34990 ft | 482 kts | 95° |
| 2026-04-25 18:07 | 58.02664 | -20.72929 | 34992 ft | 482 kts | 95° |
| 2026-04-25 18:07 | 58.02233 | -20.60271 | 34996 ft | 482 kts | 95° |
| 2026-04-25 18:08 | 58.01792 | -20.47676 | 34998 ft | 483 kts | 96° |
| 2026-04-25 18:08 | 58.01335 | -20.35007 | 34995 ft | 483 kts | 96° |
| 2026-04-25 18:09 | 58.00869 | -20.22422 | 35000 ft | 483 kts | 96° |
| 2026-04-25 18:09 | 58.00387 | -20.09755 | 35000 ft | 483 kts | 96° |
| 2026-04-25 18:10 | 58.00099 | -19.97052 | 35006 ft | 485 kts | 91° |
| 2026-04-25 18:10 | 58.00278 | -19.84386 | 35010 ft | 485 kts | 90° |
| 2026-04-25 18:11 | 58.00516 | -19.71707 | 35008 ft | 485 kts | 90° |
| 2026-04-25 18:11 | 58.00745 | -19.58946 | 35008 ft | 486 kts | 90° |
| 2026-04-25 18:12 | 58.00951 | -19.46257 | 35015 ft | 486 kts | 90° |
| 2026-04-25 18:12 | 58.01142 | -19.33470 | 35018 ft | 486 kts | 91° |
| 2026-04-25 18:13 | 58.01317 | -19.20787 | 35016 ft | 486 kts | 91° |
| 2026-04-25 18:13 | 58.01482 | -19.07997 | 35020 ft | 486 kts | 91° |
| 2026-04-25 18:14 | 58.01704 | -18.88875 | 35027 ft | 486 kts | 91° |
| 2026-04-25 18:14 | 58.01837 | -18.76086 | 35028 ft | 487 kts | 91° |
| 2026-04-25 18:15 | 58.01957 | -18.63351 | 35032 ft | 487 kts | 91° |
| 2026-04-25 18:15 | 58.02064 | -18.50628 | 35032 ft | 487 kts | 92° |
| 2026-04-25 18:16 | 58.02158 | -18.37824 | 35039 ft | 487 kts | 92° |
| 2026-04-25 18:17 | 58.02276 | -18.18637 | 35039 ft | 488 kts | 92° |
| 2026-04-25 18:17 | 58.02339 | -18.05827 | 35043 ft | 488 kts | 92° |
| 2026-04-25 18:18 | 58.02388 | -17.93031 | 35048 ft | 488 kts | 92° |
| 2026-04-25 18:18 | 58.02425 | -17.80258 | 35046 ft | 488 kts | 92° |
| 2026-04-25 18:19 | 58.02449 | -17.67447 | 35043 ft | 488 kts | 93° |
| 2026-04-25 18:19 | 58.02460 | -17.54670 | 35056 ft | 488 kts | 93° |
| 2026-04-25 18:20 | 58.02459 | -17.41886 | 35059 ft | 488 kts | 93° |
| 2026-04-25 18:20 | 58.02444 | -17.29048 | 35055 ft | 488 kts | 93° |
| 2026-04-25 18:21 | 58.02417 | -17.16229 | 35057 ft | 488 kts | 94° |
| 2026-04-25 18:21 | 58.02377 | -17.03483 | 35061 ft | 488 kts | 94° |
| 2026-04-25 18:22 | 58.02323 | -16.90632 | 35061 ft | 488 kts | 94° |
| 2026-04-25 18:22 | 58.02257 | -16.77825 | 35063 ft | 488 kts | 94° |
| 2026-04-25 18:23 | 58.02179 | -16.65066 | 35068 ft | 488 kts | 94° |
| 2026-04-25 18:23 | 58.02087 | -16.52242 | 35067 ft | 488 kts | 94° |
| 2026-04-25 18:24 | 58.01982 | -16.39393 | 35067 ft | 488 kts | 95° |
| 2026-04-25 18:24 | 58.01865 | -16.26638 | 35076 ft | 488 kts | 95° |
| 2026-04-25 18:25 | 58.01734 | -16.13779 | 35073 ft | 489 kts | 95° |
| 2026-04-25 18:25 | 58.01590 | -16.00943 | 35080 ft | 489 kts | 95° |
| 2026-04-25 18:26 | 58.01435 | -15.88178 | 35077 ft | 489 kts | 95° |
| 2026-04-25 18:26 | 58.01266 | -15.75361 | 35080 ft | 489 kts | 95° |
| 2026-04-25 18:27 | 58.01083 | -15.62514 | 35083 ft | 489 kts | 95° |
| 2026-04-25 18:27 | 58.00889 | -15.49757 | 35085 ft | 489 kts | 96° |
| 2026-04-25 18:28 | 58.00681 | -15.36915 | 35085 ft | 489 kts | 96° |
| 2026-04-25 18:28 | 58.00461 | -15.24136 | 35091 ft | 490 kts | 96° |
| 2026-04-25 18:29 | 58.00075 | -15.04869 | 35091 ft | 488 kts | 98° |
| 2026-04-25 18:30 | 57.97694 | -14.86502 | 35102 ft | 480 kts | 112° |
| 2026-04-25 18:30 | 57.96645 | -14.80544 | 35099 ft | 480 kts | 112° |
| 2026-04-25 18:30 | 57.94499 | -14.68675 | 35100 ft | 480 kts | 112° |
| 2026-04-25 18:31 | 57.92701 | -14.58751 | 35106 ft | 480 kts | 112° |
| 2026-04-25 18:31 | 57.90548 | -14.46821 | 35106 ft | 481 kts | 112° |
| 2026-04-25 18:32 | 57.88403 | -14.34957 | 35110 ft | 481 kts | 112° |
| 2026-04-25 18:32 | 57.86246 | -14.23099 | 35105 ft | 481 kts | 112° |
| 2026-04-25 18:33 | 57.84068 | -14.11203 | 35111 ft | 481 kts | 113° |
| 2026-04-25 18:33 | 57.81883 | -13.99349 | 35113 ft | 481 kts | 113° |
| 2026-04-25 18:34 | 57.79690 | -13.87528 | 35119 ft | 481 kts | 113° |
| 2026-04-25 18:34 | 57.77475 | -13.75663 | 35108 ft | 481 kts | 113° |
| 2026-04-25 18:35 | 57.75252 | -13.63827 | 35119 ft | 481 kts | 113° |
| 2026-04-25 18:35 | 57.73028 | -13.52062 | 35125 ft | 482 kts | 113° |
| 2026-04-25 18:36 | 57.70782 | -13.40254 | 35119 ft | 482 kts | 113° |
| 2026-04-25 18:36 | 57.68531 | -13.28489 | 35119 ft | 482 kts | 113° |
| 2026-04-25 18:37 | 57.66260 | -13.16689 | 35129 ft | 482 kts | 113° |
| 2026-04-25 18:37 | 57.63976 | -13.04897 | 35124 ft | 482 kts | 114° |
| 2026-04-25 18:38 | 57.61697 | -12.93203 | 35129 ft | 482 kts | 114° |
| 2026-04-25 18:38 | 57.59386 | -12.81412 | 35132 ft | 483 kts | 114° |
| 2026-04-25 18:39 | 57.57065 | -12.69639 | 35132 ft | 483 kts | 114° |
| 2026-04-25 18:39 | 57.54750 | -12.57971 | 35132 ft | 483 kts | 114° |
| 2026-04-25 18:40 | 57.52406 | -12.46227 | 35134 ft | 483 kts | 114° |
| 2026-04-25 18:40 | 57.50053 | -12.34504 | 35140 ft | 483 kts | 114° |
| 2026-04-25 18:41 | 57.47700 | -12.22851 | 35141 ft | 484 kts | 114° |
| 2026-04-25 18:41 | 57.45316 | -12.11111 | 35141 ft | 484 kts | 114° |
| 2026-04-25 18:42 | 57.43326 | -12.01367 | 35137 ft | 484 kts | 114° |
| 2026-04-25 18:42 | 57.40531 | -11.87761 | 35142 ft | 484 kts | 114° |
| 2026-04-25 18:43 | 57.38131 | -11.76147 | 35142 ft | 484 kts | 114° |
| 2026-04-25 18:43 | 57.35702 | -11.64464 | 35139 ft | 484 kts | 115° |
| 2026-04-25 18:44 | 57.33281 | -11.52881 | 35150 ft | 485 kts | 115° |
| 2026-04-25 18:44 | 57.30834 | -11.41248 | 35146 ft | 485 kts | 115° |
| 2026-04-25 18:45 | 57.28382 | -11.29651 | 35150 ft | 485 kts | 115° |
| 2026-04-25 18:45 | 57.25909 | -11.18026 | 35147 ft | 485 kts | 115° |
| 2026-04-25 18:46 | 57.23440 | -11.06480 | 35150 ft | 485 kts | 115° |
| 2026-04-25 18:46 | 57.20947 | -10.94892 | 35152 ft | 485 kts | 115° |
| 2026-04-25 18:47 | 57.18434 | -10.83275 | 35153 ft | 486 kts | 115° |
| 2026-04-25 18:47 | 57.15932 | -10.71774 | 35155 ft | 486 kts | 115° |
| 2026-04-25 18:48 | 57.13405 | -10.60219 | 35153 ft | 486 kts | 115° |
| 2026-04-25 18:48 | 57.10863 | -10.48663 | 35155 ft | 486 kts | 115° |
| 2026-04-25 18:49 | 57.08327 | -10.37196 | 35154 ft | 486 kts | 115° |
| 2026-04-25 18:49 | 57.05757 | -10.25643 | 35157 ft | 487 kts | 115° |
| 2026-04-25 18:50 | 57.03185 | -10.14141 | 35156 ft | 487 kts | 115° |
| 2026-04-25 18:50 | 57.00609 | -10.02631 | 35156 ft | 488 kts | 114° |
| 2026-04-25 18:51 | 56.98923 | -9.92782 | 35161 ft | 491 kts | 109° |
| 2026-04-25 18:51 | 56.96798 | -9.78638 | 35161 ft | 493 kts | 108° |
| 2026-04-25 18:52 | 56.94981 | -9.66412 | 35167 ft | 505 kts | 108° |
| 2026-04-25 18:52 | 56.93143 | -9.53936 | 35165 ft | 509 kts | 105° |
| 2026-04-25 18:53 | 56.92438 | -9.40952 | 35165 ft | 513 kts | 94° |
| 2026-04-25 18:53 | 56.92323 | -9.27949 | 35169 ft | 514 kts | 93° |
| 2026-04-25 18:54 | 56.92228 | -9.08299 | 35170 ft | 514 kts | 93° |
| 2026-04-25 18:55 | 56.92125 | -8.95273 | 35172 ft | 514 kts | 94° |
| 2026-04-25 18:55 | 56.91995 | -8.82139 | 35171 ft | 514 kts | 94° |
| 2026-04-25 18:56 | 56.91851 | -8.69094 | 35172 ft | 513 kts | 94° |
| 2026-04-25 18:56 | 56.91694 | -8.56003 | 35170 ft | 513 kts | 94° |
| 2026-04-25 18:57 | 56.91525 | -8.42992 | 35174 ft | 513 kts | 94° |
| 2026-04-25 18:57 | 56.91341 | -8.29883 | 35180 ft | 513 kts | 94° |
| 2026-04-25 18:58 | 56.91145 | -8.16902 | 35179 ft | 513 kts | 94° |
| 2026-04-25 18:58 | 56.90824 | -7.97310 | 35183 ft | 512 kts | 94° |
| 2026-04-25 18:59 | 56.90350 | -7.71258 | 35180 ft | 512 kts | 94° |
| 2026-04-25 19:00 | 56.89960 | -7.51768 | 35184 ft | 512 kts | 94° |
| 2026-04-25 19:01 | 56.89539 | -7.32314 | 35185 ft | 512 kts | 94° |
| 2026-04-25 19:01 | 56.89241 | -7.19276 | 35190 ft | 512 kts | 95° |
| 2026-04-25 19:02 | 56.88770 | -6.99816 | 35180 ft | 512 kts | 95° |
| 2026-04-25 19:03 | 56.88381 | -6.84590 | 35186 ft | 512 kts | 95° |
| 2026-04-25 19:03 | 56.87914 | -6.67253 | 35195 ft | 511 kts | 95° |
| 2026-04-25 19:04 | 56.87364 | -6.47831 | 35189 ft | 511 kts | 95° |
| 2026-04-25 19:05 | 56.86581 | -6.21903 | 35195 ft | 510 kts | 95° |
| 2026-04-25 19:06 | 56.86169 | -6.08936 | 35193 ft | 509 kts | 95° |
| 2026-04-25 19:06 | 56.85531 | -5.89612 | 35193 ft | 509 kts | 96° |
| 2026-04-25 19:07 | 56.84861 | -5.70265 | 35190 ft | 508 kts | 96° |
| 2026-04-25 19:08 | 56.84163 | -5.50964 | 35196 ft | 506 kts | 96° |
| 2026-04-25 19:09 | 56.83355 | -5.29597 | 35203 ft | 505 kts | 96° |
| 2026-04-25 19:10 | 56.82431 | -5.06253 | 35207 ft | 504 kts | 96° |
| 2026-04-25 19:10 | 56.81905 | -4.93464 | 35211 ft | 503 kts | 96° |
| 2026-04-25 19:11 | 56.81368 | -4.80735 | 35217 ft | 502 kts | 97° |
| 2026-04-25 19:11 | 56.80822 | -4.68077 | 35222 ft | 502 kts | 97° |
| 2026-04-25 19:12 | 56.80262 | -4.55372 | 35228 ft | 501 kts | 97° |
| 2026-04-25 19:12 | 56.79692 | -4.42738 | 35234 ft | 500 kts | 97° |
| 2026-04-25 19:13 | 56.79109 | -4.30113 | 35246 ft | 500 kts | 97° |
| 2026-04-25 19:13 | 56.78510 | -4.17435 | 35254 ft | 500 kts | 97° |
| 2026-04-25 19:14 | 56.77899 | -4.04792 | 35262 ft | 499 kts | 97° |
| 2026-04-25 19:14 | 56.77283 | -3.92285 | 35267 ft | 499 kts | 97° |
| 2026-04-25 19:15 | 56.76650 | -3.79680 | 35271 ft | 498 kts | 97° |
| 2026-04-25 19:15 | 56.76002 | -3.67058 | 35277 ft | 498 kts | 97° |
| 2026-04-25 19:16 | 56.75342 | -3.54475 | 35287 ft | 498 kts | 97° |
| 2026-04-25 19:16 | 56.74673 | -3.41960 | 35288 ft | 499 kts | 97° |
| 2026-04-25 19:17 | 56.74104 | -3.31468 | 35294 ft | 499 kts | 97° |
| 2026-04-25 19:17 | 56.73408 | -3.18859 | 35296 ft | 499 kts | 98° |
| 2026-04-25 19:18 | 56.72704 | -3.06360 | 35300 ft | 499 kts | 98° |
| 2026-04-25 19:18 | 56.71983 | -2.93786 | 35297 ft | 499 kts | 98° |
| 2026-04-25 19:19 | 56.71246 | -2.81163 | 35300 ft | 499 kts | 98° |
| 2026-04-25 19:19 | 56.70500 | -2.68592 | 35299 ft | 499 kts | 98° |
| 2026-04-25 19:20 | 56.69745 | -2.56097 | 35304 ft | 500 kts | 98° |
| 2026-04-25 19:20 | 56.68971 | -2.43491 | 35303 ft | 500 kts | 98° |
| 2026-04-25 19:21 | 56.68189 | -2.30975 | 35302 ft | 500 kts | 98° |
| 2026-04-25 19:21 | 56.66985 | -2.12087 | 35301 ft | 500 kts | 98° |
| 2026-04-25 19:22 | 56.66170 | -1.99570 | 35300 ft | 501 kts | 98° |
| 2026-04-25 19:23 | 56.64922 | -1.80745 | 35301 ft | 501 kts | 98° |
| 2026-04-25 19:23 | 56.63639 | -1.61852 | 35302 ft | 501 kts | 98° |
| 2026-04-25 19:24 | 56.62774 | -1.49353 | 35297 ft | 501 kts | 98° |
| 2026-04-25 19:25 | 56.61000 | -1.24284 | 35310 ft | 501 kts | 98° |
| 2026-04-25 19:25 | 56.60091 | -1.11716 | 35307 ft | 501 kts | 98° |
| 2026-04-25 19:26 | 56.59167 | -0.99128 | 35293 ft | 502 kts | 98° |
| 2026-04-25 19:26 | 56.58235 | -0.86600 | 35304 ft | 502 kts | 99° |
| 2026-04-25 19:27 | 56.57448 | -0.76162 | 35293 ft | 502 kts | 99° |
| 2026-04-25 19:27 | 56.56331 | -0.61527 | 35294 ft | 503 kts | 99° |
| 2026-04-25 19:28 | 56.55370 | -0.49109 | 35292 ft | 491 kts | 99° |
| 2026-04-25 19:28 | 56.54407 | -0.36866 | 35293 ft | 489 kts | 99° |
| 2026-04-25 19:29 | 56.53441 | -0.24738 | 35300 ft | 490 kts | 99° |
| 2026-04-25 19:29 | 56.52453 | -0.12490 | 35301 ft | 491 kts | 99° |
| 2026-04-25 19:30 | 56.51452 | -0.00219 | 35305 ft | 492 kts | 99° |
| 2026-04-25 19:30 | 56.50437 | 0.12065 | 35305 ft | 493 kts | 99° |
| 2026-04-25 19:31 | 56.49413 | 0.24294 | 35296 ft | 493 kts | 99° |
| 2026-04-25 19:31 | 56.48373 | 0.36573 | 35302 ft | 494 kts | 99° |
| 2026-04-25 19:32 | 56.47323 | 0.48825 | 35303 ft | 495 kts | 99° |
| 2026-04-25 19:32 | 56.46429 | 0.59141 | 35305 ft | 495 kts | 99° |
| 2026-04-25 19:33 | 56.45171 | 0.73482 | 35301 ft | 496 kts | 99° |
| 2026-04-25 19:33 | 56.44076 | 0.85805 | 35303 ft | 496 kts | 99° |
| 2026-04-25 19:34 | 56.42974 | 0.98065 | 35298 ft | 496 kts | 99° |
| 2026-04-25 19:34 | 56.41853 | 1.10388 | 35299 ft | 497 kts | 99° |
| 2026-04-25 19:35 | 56.40718 | 1.22731 | 35288 ft | 497 kts | 99° |
| 2026-04-25 19:35 | 56.39581 | 1.34965 | 35286 ft | 497 kts | 99° |
| 2026-04-25 19:36 | 56.38426 | 1.47240 | 35303 ft | 497 kts | 99° |
| 2026-04-25 19:36 | 56.37251 | 1.59595 | 35305 ft | 497 kts | 99° |
| 2026-04-25 19:37 | 56.36064 | 1.71933 | 35285 ft | 497 kts | 99° |
| 2026-04-25 19:37 | 56.34874 | 1.84172 | 35283 ft | 498 kts | 99° |
| 2026-04-25 19:38 | 56.33666 | 1.96470 | 35281 ft | 498 kts | 99° |
| 2026-04-25 19:38 | 56.32448 | 2.08725 | 35278 ft | 499 kts | 99° |
| 2026-04-25 19:39 | 56.31210 | 2.21059 | 35277 ft | 499 kts | 99° |
| 2026-04-25 19:39 | 56.29968 | 2.33304 | 35272 ft | 499 kts | 99° |
| 2026-04-25 19:40 | 56.28706 | 2.45621 | 35270 ft | 500 kts | 98° |
| 2026-04-25 19:40 | 56.27430 | 2.57940 | 35270 ft | 500 kts | 98° |
| 2026-04-25 19:41 | 56.26151 | 2.70168 | 35266 ft | 500 kts | 98° |
| 2026-04-25 19:41 | 56.25280 | 2.78429 | 35263 ft | 501 kts | 98° |
| 2026-04-25 19:42 | 56.23530 | 2.94846 | 35261 ft | 501 kts | 98° |
| 2026-04-25 19:42 | 56.22214 | 3.07062 | 35256 ft | 502 kts | 98° |
| 2026-04-25 19:43 | 56.20875 | 3.19402 | 35247 ft | 502 kts | 98° |
| 2026-04-25 19:43 | 56.20492 | 3.31851 | 35242 ft | 496 kts | 83° |
| 2026-04-25 19:44 | 56.21250 | 3.44114 | 35230 ft | 495 kts | 79° |
| 2026-04-25 19:44 | 56.22233 | 3.56309 | 35231 ft | 495 kts | 78° |
| 2026-04-25 19:45 | 56.23207 | 3.68573 | 35236 ft | 496 kts | 78° |
| 2026-04-25 19:45 | 56.24133 | 3.80884 | 35244 ft | 496 kts | 78° |
| 2026-04-25 19:46 | 56.25285 | 3.93098 | 35250 ft | 492 kts | 70° |
| 2026-04-25 19:46 | 56.27331 | 4.04804 | 35249 ft | 489 kts | 67° |
| 2026-04-25 19:47 | 56.29566 | 4.16315 | 35248 ft | 489 kts | 66° |
| 2026-04-25 19:47 | 56.31808 | 4.27821 | 35246 ft | 489 kts | 66° |
| 2026-04-25 19:48 | 56.34036 | 4.39472 | 35243 ft | 489 kts | 66° |
| 2026-04-25 19:48 | 56.36218 | 4.51027 | 35241 ft | 489 kts | 66° |
| 2026-04-25 19:49 | 56.37680 | 4.58822 | 35234 ft | 489 kts | 66° |
| 2026-04-25 19:49 | 56.40563 | 4.74278 | 35231 ft | 489 kts | 66° |
| 2026-04-25 19:50 | 56.43800 | 4.91778 | 35234 ft | 489 kts | 66° |
| 2026-04-25 19:51 | 56.45930 | 5.03383 | 35217 ft | 489 kts | 66° |
| 2026-04-25 19:51 | 56.48068 | 5.15101 | 35214 ft | 489 kts | 66° |
| 2026-04-25 19:52 | 56.50185 | 5.26777 | 35213 ft | 489 kts | 66° |
| 2026-04-25 19:52 | 56.52287 | 5.38446 | 35214 ft | 489 kts | 66° |
| 2026-04-25 19:53 | 56.54397 | 5.50233 | 35205 ft | 489 kts | 66° |
| 2026-04-25 19:53 | 56.56480 | 5.61945 | 35198 ft | 489 kts | 66° |
| 2026-04-25 19:54 | 56.58560 | 5.73717 | 35198 ft | 489 kts | 66° |
| 2026-04-25 19:54 | 56.60609 | 5.85385 | 35187 ft | 489 kts | 66° |
| 2026-04-25 19:55 | 56.62676 | 5.97237 | 35183 ft | 490 kts | 65° |
| 2026-04-25 19:55 | 56.64724 | 6.09053 | 35183 ft | 490 kts | 65° |
| 2026-04-25 19:56 | 56.66756 | 6.20854 | 35172 ft | 490 kts | 65° |
| 2026-04-25 19:56 | 56.68785 | 6.32714 | 35168 ft | 490 kts | 65° |
| 2026-04-25 19:57 | 56.70789 | 6.44510 | 35166 ft | 490 kts | 65° |
| 2026-04-25 19:57 | 56.72795 | 6.56392 | 35163 ft | 490 kts | 65° |
| 2026-04-25 19:58 | 56.74781 | 6.68241 | 35157 ft | 490 kts | 65° |
| 2026-04-25 19:58 | 56.76763 | 6.80144 | 35157 ft | 490 kts | 65° |
| 2026-04-25 19:59 | 56.78721 | 6.91982 | 35150 ft | 490 kts | 65° |
| 2026-04-25 19:59 | 56.80683 | 7.03921 | 35137 ft | 490 kts | 65° |
| 2026-04-25 20:00 | 56.82632 | 7.15869 | 35136 ft | 489 kts | 65° |
| 2026-04-25 20:00 | 56.84556 | 7.27739 | 35132 ft | 489 kts | 65° |
| 2026-04-25 20:01 | 56.87427 | 7.45615 | 35129 ft | 489 kts | 65° |
| 2026-04-25 20:01 | 56.89014 | 7.55571 | 35124 ft | 489 kts | 65° |
| 2026-04-25 20:02 | 56.90914 | 7.67579 | 35120 ft | 489 kts | 65° |
| 2026-04-25 20:02 | 56.92784 | 7.79476 | 35115 ft | 489 kts | 65° |
| 2026-04-25 20:03 | 56.94660 | 7.91489 | 35107 ft | 489 kts | 65° |
| 2026-04-25 20:03 | 56.96518 | 8.03481 | 35105 ft | 489 kts | 65° |
| 2026-04-25 20:04 | 56.98358 | 8.15436 | 35103 ft | 489 kts | 65° |
| 2026-04-25 20:04 | 57.00191 | 8.27438 | 35102 ft | 490 kts | 65° |
| 2026-04-25 20:05 | 57.02020 | 8.39496 | 35099 ft | 490 kts | 65° |
| 2026-04-25 20:05 | 57.03840 | 8.51589 | 35095 ft | 490 kts | 64° |
| 2026-04-25 20:06 | 57.05638 | 8.63613 | 35092 ft | 490 kts | 64° |
| 2026-04-25 20:06 | 57.07431 | 8.75707 | 35088 ft | 490 kts | 64° |
| 2026-04-25 20:07 | 57.09214 | 8.87823 | 35086 ft | 490 kts | 64° |
| 2026-04-25 20:07 | 57.10979 | 8.99902 | 35083 ft | 490 kts | 64° |
| 2026-04-25 20:08 | 57.12739 | 9.12039 | 35078 ft | 490 kts | 64° |
| 2026-04-25 20:08 | 57.14485 | 9.24176 | 35069 ft | 490 kts | 64° |
| 2026-04-25 20:09 | 57.16214 | 9.36282 | 35060 ft | 490 kts | 64° |
| 2026-04-25 20:09 | 57.17944 | 9.48486 | 35063 ft | 490 kts | 64° |
| 2026-04-25 20:10 | 57.19648 | 9.60600 | 35057 ft | 491 kts | 64° |
| 2026-04-25 20:10 | 57.21355 | 9.72840 | 35054 ft | 491 kts | 64° |
| 2026-04-25 20:11 | 57.23039 | 9.85007 | 35058 ft | 492 kts | 64° |
| 2026-04-25 20:11 | 57.24729 | 9.97312 | 35051 ft | 492 kts | 64° |
| 2026-04-25 20:12 | 57.26391 | 10.09518 | 35049 ft | 493 kts | 64° |
| 2026-04-25 20:12 | 57.27786 | 10.19832 | 35051 ft | 493 kts | 64° |
| 2026-04-25 20:13 | 57.29707 | 10.34163 | 35048 ft | 494 kts | 64° |
| 2026-04-25 20:13 | 57.31346 | 10.46487 | 35045 ft | 495 kts | 64° |
| 2026-04-25 20:14 | 57.32980 | 10.58885 | 35038 ft | 495 kts | 64° |
| 2026-04-25 20:14 | 57.34594 | 10.71233 | 35029 ft | 496 kts | 64° |
| 2026-04-25 20:15 | 57.36205 | 10.83674 | 35028 ft | 496 kts | 64° |
| 2026-04-25 20:15 | 57.37812 | 10.96161 | 35023 ft | 497 kts | 64° |
| 2026-04-25 20:16 | 57.39394 | 11.08560 | 35018 ft | 497 kts | 64° |
| 2026-04-25 20:16 | 57.40976 | 11.21085 | 35007 ft | 498 kts | 64° |
| 2026-04-25 20:17 | 57.42544 | 11.33619 | 35010 ft | 498 kts | 64° |
| 2026-04-25 20:17 | 57.44095 | 11.46119 | 35011 ft | 499 kts | 64° |
| 2026-04-25 20:18 | 57.45640 | 11.58677 | 35005 ft | 499 kts | 65° |
| 2026-04-25 20:18 | 57.47163 | 11.71166 | 35001 ft | 499 kts | 65° |
| 2026-04-25 20:19 | 57.47932 | 11.77512 | 34994 ft | 499 kts | 65° |
| 2026-04-25 20:19 | 57.49247 | 11.88431 | 34996 ft | 499 kts | 65° |
| 2026-04-25 20:20 | 57.50742 | 12.00956 | 34968 ft | 499 kts | 65° |
| 2026-04-25 20:20 | 57.52234 | 12.13576 | 34958 ft | 499 kts | 66° |
| 2026-04-25 20:21 | 57.53713 | 12.26183 | 34951 ft | 499 kts | 66° |
| 2026-04-25 20:21 | 57.55183 | 12.38838 | 34951 ft | 500 kts | 66° |
| 2026-04-25 20:22 | 57.56151 | 12.47243 | 34955 ft | 500 kts | 66° |
| 2026-04-25 20:22 | 57.58080 | 12.64162 | 34961 ft | 501 kts | 67° |
| 2026-04-25 20:23 | 57.59520 | 12.76925 | 34960 ft | 501 kts | 67° |
| 2026-04-25 20:23 | 57.60938 | 12.89599 | 34963 ft | 502 kts | 68° |
| 2026-04-25 20:24 | 57.62351 | 13.02373 | 34957 ft | 503 kts | 68° |
| 2026-04-25 20:24 | 57.63756 | 13.15206 | 34955 ft | 503 kts | 69° |
| 2026-04-25 20:25 | 57.65138 | 13.27949 | 34953 ft | 504 kts | 69° |
| 2026-04-25 20:25 | 57.66527 | 13.40857 | 34945 ft | 505 kts | 69° |
| 2026-04-25 20:26 | 57.67897 | 13.53733 | 34928 ft | 506 kts | 70° |
| 2026-04-25 20:26 | 57.69248 | 13.66595 | 34918 ft | 507 kts | 70° |
| 2026-04-25 20:27 | 57.70601 | 13.79608 | 34897 ft | 508 kts | 70° |
| 2026-04-25 20:27 | 57.71931 | 13.92539 | 34885 ft | 508 kts | 70° |
| 2026-04-25 20:28 | 57.73260 | 14.05575 | 34889 ft | 509 kts | 71° |
| 2026-04-25 20:28 | 57.74566 | 14.18543 | 34891 ft | 509 kts | 71° |
| 2026-04-25 20:29 | 57.75867 | 14.31591 | 34890 ft | 510 kts | 71° |
| 2026-04-25 20:29 | 57.77152 | 14.44626 | 34896 ft | 510 kts | 72° |
| 2026-04-25 20:30 | 57.78429 | 14.57734 | 34898 ft | 510 kts | 72° |
| 2026-04-25 20:30 | 57.79687 | 14.70790 | 34900 ft | 511 kts | 72° |
| 2026-04-25 20:31 | 57.80939 | 14.83923 | 34895 ft | 511 kts | 72° |
| 2026-04-25 20:31 | 57.82178 | 14.97082 | 34889 ft | 512 kts | 73° |
| 2026-04-25 20:32 | 57.83398 | 15.10197 | 34883 ft | 512 kts | 73° |
| 2026-04-25 20:32 | 57.84615 | 15.23419 | 34873 ft | 512 kts | 73° |
| 2026-04-25 20:33 | 57.85811 | 15.36593 | 34616 ft | 507 kts | 73° |
| 2026-04-25 20:33 | 57.86456 | 15.43012 | 33938 ft | 503 kts | 69° |
| 2026-04-25 20:33 | 57.86756 | 15.45175 | 33652 ft | 500 kts | 66° |
| 2026-04-25 20:34 | 57.88970 | 15.55042 | 32262 ft | 484 kts | 52° |
| 2026-04-25 20:34 | 57.90845 | 15.60228 | 31490 ft | 476 kts | 45° |
| 2026-04-25 20:34 | 57.92849 | 15.65100 | 30722 ft | 474 kts | 44° |
| 2026-04-25 20:34 | 57.94888 | 15.69993 | 29929 ft | 473 kts | 44° |
| 2026-04-25 20:35 | 57.96919 | 15.74876 | 29167 ft | 472 kts | 44° |
| 2026-04-25 20:35 | 57.98921 | 15.79698 | 28894 ft | 473 kts | 44° |
| 2026-04-25 20:35 | 58.02975 | 15.89508 | 28868 ft | 472 kts | 45° |
| 2026-04-25 20:36 | 58.04995 | 15.94415 | 28665 ft | 470 kts | 45° |
| 2026-04-25 20:36 | 58.06962 | 15.99205 | 27801 ft | 470 kts | 45° |
| 2026-04-25 20:36 | 58.08966 | 16.04095 | 27083 ft | 465 kts | 45° |
| 2026-04-25 20:36 | 58.10935 | 16.08915 | 26426 ft | 458 kts | 46° |
| 2026-04-25 20:37 | 58.12869 | 16.13656 | 25771 ft | 453 kts | 46° |
| 2026-04-25 20:37 | 58.14785 | 16.18361 | 25119 ft | 448 kts | 46° |
| 2026-04-25 20:37 | 58.16675 | 16.23011 | 24489 ft | 444 kts | 46° |
| 2026-04-25 20:37 | 58.18556 | 16.27645 | 23846 ft | 439 kts | 47° |
| 2026-04-25 20:38 | 58.20392 | 16.32179 | 23180 ft | 435 kts | 47° |
| 2026-04-25 20:38 | 58.22225 | 16.36712 | 22428 ft | 430 kts | 47° |
| 2026-04-25 20:38 | 58.24138 | 16.40990 | 21677 ft | 420 kts | 40° |
| 2026-04-25 20:38 | 58.26332 | 16.44541 | 20974 ft | 410 kts | 32° |
| 2026-04-25 20:39 | 58.28671 | 16.47597 | 20248 ft | 404 kts | 28° |
| 2026-04-25 20:39 | 58.31035 | 16.50380 | 19567 ft | 398 kts | 26° |
| 2026-04-25 20:39 | 58.33392 | 16.53008 | 18887 ft | 394 kts | 26° |
| 2026-04-25 20:39 | 58.34196 | 16.53888 | 18672 ft | 392 kts | 26° |
| 2026-04-25 20:40 | 58.38103 | 16.58158 | 17437 ft | 386 kts | 26° |
| 2026-04-25 20:40 | 58.40423 | 16.60719 | 16671 ft | 382 kts | 26° |
| 2026-04-25 20:40 | 58.42716 | 16.63277 | 15920 ft | 379 kts | 26° |
| 2026-04-25 20:40 | 58.44952 | 16.65792 | 15190 ft | 376 kts | 26° |
| 2026-04-25 20:41 | 58.47192 | 16.68326 | 14462 ft | 372 kts | 26° |
| 2026-04-25 20:41 | 58.49410 | 16.70843 | 13746 ft | 369 kts | 26° |
| 2026-04-25 20:41 | 58.51604 | 16.73340 | 12999 ft | 365 kts | 26° |
| 2026-04-25 20:41 | 58.53789 | 16.75827 | 12271 ft | 360 kts | 27° |
| 2026-04-25 20:42 | 58.55909 | 16.78243 | 11586 ft | 355 kts | 27° |
| 2026-04-25 20:42 | 58.58024 | 16.80657 | 11051 ft | 350 kts | 27° |
| 2026-04-25 20:42 | 58.60113 | 16.83043 | 10857 ft | 349 kts | 27° |
| 2026-04-25 20:42 | 58.62203 | 16.85431 | 10852 ft | 349 kts | 27° |
| 2026-04-25 20:43 | 58.64297 | 16.87828 | 10851 ft | 349 kts | 27° |
| 2026-04-25 20:43 | 58.66356 | 16.90189 | 10855 ft | 348 kts | 27° |
| 2026-04-25 20:43 | 58.68439 | 16.92582 | 10857 ft | 348 kts | 27° |
| 2026-04-25 20:43 | 58.70522 | 16.94978 | 10856 ft | 348 kts | 27° |
| 2026-04-25 20:44 | 58.72603 | 16.97376 | 10858 ft | 348 kts | 27° |
| 2026-04-25 20:44 | 58.74681 | 16.99774 | 10860 ft | 348 kts | 27° |
| 2026-04-25 20:44 | 58.76733 | 17.02146 | 10859 ft | 348 kts | 27° |
| 2026-04-25 20:44 | 58.78805 | 17.04544 | 10858 ft | 348 kts | 27° |
| 2026-04-25 20:45 | 58.80186 | 17.06143 | 10857 ft | 348 kts | 27° |
| 2026-04-25 20:45 | 58.82260 | 17.08549 | 10855 ft | 347 kts | 27° |
| 2026-04-25 20:45 | 58.84334 | 17.10958 | 10853 ft | 347 kts | 27° |
| 2026-04-25 20:45 | 58.87086 | 17.14159 | 10847 ft | 347 kts | 27° |
| 2026-04-25 20:46 | 58.88483 | 17.15787 | 10848 ft | 347 kts | 27° |
| 2026-04-25 20:46 | 58.90556 | 17.18205 | 10846 ft | 347 kts | 27° |
| 2026-04-25 20:46 | 58.92591 | 17.20581 | 10843 ft | 347 kts | 27° |
| 2026-04-25 20:46 | 58.94673 | 17.23017 | 10841 ft | 347 kts | 27° |
| 2026-04-25 20:47 | 58.96743 | 17.25442 | 10841 ft | 347 kts | 27° |
| 2026-04-25 20:47 | 58.98810 | 17.27866 | 10808 ft | 346 kts | 27° |
| 2026-04-25 20:47 | 59.00848 | 17.30263 | 10278 ft | 339 kts | 27° |
| 2026-04-25 20:47 | 59.02840 | 17.32609 | 9668 ft | 334 kts | 27° |
| 2026-04-25 20:48 | 59.04788 | 17.34913 | 9339 ft | 320 kts | 27° |
| 2026-04-25 20:48 | 59.06654 | 17.37127 | 9009 ft | 307 kts | 27° |
| 2026-04-25 20:48 | 59.08441 | 17.39248 | 8715 ft | 294 kts | 27° |
| 2026-04-25 20:48 | 59.10156 | 17.41283 | 8444 ft | 283 kts | 27° |
| 2026-04-25 20:49 | 59.11804 | 17.43235 | 8195 ft | 272 kts | 26° |
| 2026-04-25 20:49 | 59.13370 | 17.45092 | 7955 ft | 262 kts | 26° |
| 2026-04-25 20:49 | 59.14902 | 17.46909 | 7671 ft | 255 kts | 26° |
| 2026-04-25 20:49 | 59.16405 | 17.48688 | 7306 ft | 251 kts | 26° |
| 2026-04-25 20:50 | 59.17890 | 17.50444 | 6932 ft | 248 kts | 26° |
| 2026-04-25 20:50 | 59.19360 | 17.52185 | 6544 ft | 246 kts | 26° |
| 2026-04-25 20:50 | 59.20819 | 17.53917 | 6166 ft | 244 kts | 26° |
| 2026-04-25 20:50 | 59.22269 | 17.55643 | 5733 ft | 243 kts | 26° |
| 2026-04-25 20:51 | 59.23712 | 17.57365 | 5323 ft | 241 kts | 26° |
| 2026-04-25 20:51 | 59.25135 | 17.59065 | 5038 ft | 239 kts | 26° |
| 2026-04-25 20:51 | 59.26542 | 17.60746 | 4991 ft | 240 kts | 26° |
| 2026-04-25 20:51 | 59.27966 | 17.62447 | 4997 ft | 240 kts | 26° |
| 2026-04-25 20:52 | 59.29389 | 17.64150 | 4993 ft | 240 kts | 26° |
| 2026-04-25 20:52 | 59.30332 | 17.65281 | 4890 ft | 237 kts | 26° |
| 2026-04-25 20:52 | 59.32212 | 17.67544 | 4324 ft | 237 kts | 26° |
| 2026-04-25 20:52 | 59.33623 | 17.69237 | 3871 ft | 237 kts | 26° |
| 2026-04-25 20:53 | 59.35011 | 17.70904 | 3449 ft | 236 kts | 26° |
| 2026-04-25 20:53 | 59.36435 | 17.72615 | 3009 ft | 236 kts | 27° |
| 2026-04-25 20:53 | 59.37819 | 17.74283 | 2620 ft | 235 kts | 27° |
| 2026-04-25 20:53 | 59.39211 | 17.75964 | 2493 ft | 234 kts | 27° |
| 2026-04-25 20:54 | 59.40608 | 17.77650 | 2491 ft | 236 kts | 27° |
| 2026-04-25 20:54 | 59.42011 | 17.79343 | 2497 ft | 236 kts | 27° |
| 2026-04-25 20:54 | 59.43406 | 17.81029 | 2488 ft | 231 kts | 27° |
| 2026-04-25 20:54 | 59.44710 | 17.82624 | 2484 ft | 215 kts | 27° |
| 2026-04-25 20:55 | 59.45923 | 17.84110 | 2481 ft | 198 kts | 26° |
| 2026-04-25 20:55 | 59.47113 | 17.85156 | 2489 ft | 179 kts | 12° |
| 2026-04-25 20:55 | 59.48263 | 17.85724 | 2503 ft | 161 kts | 8° |
| 2026-04-25 20:55 | 59.49321 | 17.86141 | 2498 ft | 158 kts | 7° |
| 2026-04-25 20:56 | 59.50410 | 17.86541 | 2500 ft | 159 kts | 6° |
| 2026-04-25 20:56 | 59.51500 | 17.86929 | 2493 ft | 159 kts | 6° |
| 2026-04-25 20:56 | 59.52589 | 17.87317 | 2478 ft | 159 kts | 6° |
| 2026-04-25 20:56 | 59.53680 | 17.87710 | 2281 ft | 158 kts | 6° |
| 2026-04-25 20:57 | 59.54745 | 17.88094 | 2064 ft | 151 kts | 6° |
| 2026-04-25 20:57 | 59.55738 | 17.88452 | 1844 ft | 139 kts | 6° |
| 2026-04-25 20:57 | 59.56608 | 17.88763 | 1666 ft | 127 kts | 5° |
| 2026-04-25 20:57 | 59.57443 | 17.89063 | 1502 ft | 119 kts | 5° |
| 2026-04-25 20:58 | 59.58262 | 17.89356 | 1343 ft | 120 kts | 5° |
| 2026-04-25 20:58 | 59.59092 | 17.89656 | 1162 ft | 121 kts | 5° |
| 2026-04-25 20:58 | 59.59914 | 17.89952 | 978 ft | 122 kts | 6° |
| 2026-04-25 20:58 | 59.60759 | 17.90258 | 797 ft | 124 kts | 6° |
| 2026-04-25 20:59 | 59.61617 | 17.90570 | 592 ft | 126 kts | 6° |
| 2026-04-25 20:59 | 59.62475 | 17.90873 | 404 ft | 126 kts | 5° |
| 2026-04-25 20:59 | 59.63345 | 17.91185 | 250 ft | 128 kts | 6° |
| 2026-04-25 20:59 | 59.64210 | 17.91508 | 119 ft | 124 kts | 6° |
| 2026-04-25 21:00 | 59.64937 | 17.91757 | 111 ft | 75 kts | 8° |
| 2026-04-25 21:00 | 59.65075 | 17.91822 | 110 ft | 45 kts | 22° |
| 2026-04-25 21:00 | 59.65338 | 17.92177 | 110 ft | 7 kts | 44° |
| 2026-04-25 21:01 | 59.65386 | 17.92269 | 111 ft | 12 kts | 43° |
| 2026-04-25 21:01 | 59.65458 | 17.92383 | 111 ft | 15 kts | 43° |
| 2026-04-25 21:01 | 59.65520 | 17.92566 | 112 ft | 17 kts | 68° |
| 2026-04-25 21:01 | 59.65554 | 17.92813 | 114 ft | 20 kts | 77° |
| 2026-04-25 21:02 | 59.65589 | 17.93096 | 113 ft | 22 kts | 75° |
| 2026-04-25 21:02 | 59.65630 | 17.93411 | 114 ft | 25 kts | 76° |
| 2026-04-25 21:02 | 59.65672 | 17.93734 | 120 ft | 16 kts | 77° |
| 2026-04-25 21:02 | 59.65671 | 17.93759 | 121 ft | 2 kts | 98° |
| 2026-04-25 21:03 | 59.65649 | 17.93822 | 117 ft | 7 kts | 150° |
| 2026-04-25 21:03 | 59.65592 | 17.93857 | 116 ft | 11 kts | 165° |
| 2026-04-25 21:03 | 59.65551 | 17.93876 | 116 ft | 0 kts | 166° |
| 2026-04-25 21:03 | 59.65538 | 17.93883 | 117 ft | 5 kts | 166° |
| 2026-04-25 21:04 | 59.65504 | 17.93865 | 115 ft | 4 kts | 229° |
| 2026-04-25 21:04 | 59.65481 | 17.93776 | 115 ft | 3 kts | 247° |
| 2026-04-25 21:04 | 59.65481 | 17.93775 | 115 ft | 0 kts | 247° |
| 2026-04-25 21:05 | 59.65477 | 17.93758 | 114 ft | 0 kts | 248° |
| 2026-04-25 21:05 | 59.65476 | 17.93755 | 114 ft | 0 kts | 248° |